﻿<?xml version="1.0" encoding="UTF-8" standalone="no" ?>
<gpx xmlns="http://www.topografix.com/GPX/1/1" creator="CompeGPS" version="1.1" xmlns:xsi="http://www.w3.org/2001/XMLSchema-instance" xsi:schemaLocation="http://www.topografix.com/GPX/1/1 http://www.topografix.com/GPX/1/1/gpx.xsd http://www.garmin.com/xmlschemas/GpxExtensions/v3 http://www.garmin.com/xmlschemas/GpxExtensionsv3.xsd http://www.garmin.com/xmlschemas/TrackPointExtension/v1 http://www.garmin.com/xmlschemas/TrackPointExtensionv1.xsd" xmlns:gpxtpx="http://www.garmin.com/xmlschemas/TrackPointExtension/v1">
  <metadata>
    <link href="http://www.compegps.com">
      <text>CompeGPS TEAM, SL</text>
    </link>
    <time>2017-07-25T18:13:39Z</time>
    <bounds maxlat="42.188667" maxlon="1.541475" minlat="42.162418" minlon="1.517360"/>
  </metadata>
  <trk>
    <name>ruta-al-port-del-compte-i-ascensio-al-pedro-dels-quatre-batl</name>
    <trkseg>
      <trkpt lat="42.177445" lon="1.540702">
        <ele>1945.9</ele>
        <time>2012-05-13T09:53:21Z</time>
      </trkpt>
      <trkpt lat="42.177454" lon="1.540543">
        <ele>1943.9</ele>
        <time>2012-05-13T09:54:01Z</time>
      </trkpt>
      <trkpt lat="42.177463" lon="1.540385">
        <ele>1943.0</ele>
        <time>2012-05-13T09:54:41Z</time>
      </trkpt>
      <trkpt lat="42.177473" lon="1.540226">
        <ele>1943.7</ele>
        <time>2012-05-13T09:55:21Z</time>
      </trkpt>
      <trkpt lat="42.177482" lon="1.540068">
        <ele>1945.1</ele>
        <time>2012-05-13T09:56:01Z</time>
      </trkpt>
      <trkpt lat="42.177457" lon="1.539902">
        <ele>1946.0</ele>
        <time>2012-05-13T09:56:41Z</time>
      </trkpt>
      <trkpt lat="42.177448" lon="1.539757">
        <ele>1946.6</ele>
        <time>2012-05-13T09:57:21Z</time>
      </trkpt>
      <trkpt lat="42.177439" lon="1.539611">
        <ele>1945.8</ele>
        <time>2012-05-13T09:58:01Z</time>
      </trkpt>
      <trkpt lat="42.177429" lon="1.539466">
        <ele>1944.6</ele>
        <time>2012-05-13T09:58:41Z</time>
      </trkpt>
      <trkpt lat="42.177469" lon="1.539340">
        <ele>1944.3</ele>
        <time>2012-05-13T09:59:21Z</time>
      </trkpt>
      <trkpt lat="42.177508" lon="1.539213">
        <ele>1943.7</ele>
        <time>2012-05-13T10:00:01Z</time>
      </trkpt>
      <trkpt lat="42.177548" lon="1.539087">
        <ele>1944.9</ele>
        <time>2012-05-13T10:00:41Z</time>
      </trkpt>
      <trkpt lat="42.177636" lon="1.538994">
        <ele>1944.7</ele>
        <time>2012-05-13T10:01:21Z</time>
      </trkpt>
      <trkpt lat="42.177725" lon="1.538902">
        <ele>1943.3</ele>
        <time>2012-05-13T10:02:01Z</time>
      </trkpt>
      <trkpt lat="42.177813" lon="1.538809">
        <ele>1941.2</ele>
        <time>2012-05-13T10:02:41Z</time>
      </trkpt>
      <trkpt lat="42.177876" lon="1.538668">
        <ele>1938.4</ele>
        <time>2012-05-13T10:03:21Z</time>
      </trkpt>
      <trkpt lat="42.177939" lon="1.538528">
        <ele>1937.8</ele>
        <time>2012-05-13T10:04:01Z</time>
      </trkpt>
      <trkpt lat="42.178001" lon="1.538387">
        <ele>1938.1</ele>
        <time>2012-05-13T10:04:41Z</time>
      </trkpt>
      <trkpt lat="42.178064" lon="1.538246">
        <ele>1937.9</ele>
        <time>2012-05-13T10:05:21Z</time>
      </trkpt>
      <trkpt lat="42.178147" lon="1.538168">
        <ele>1938.0</ele>
        <time>2012-05-13T10:06:01Z</time>
      </trkpt>
      <trkpt lat="42.178230" lon="1.538091">
        <ele>1938.0</ele>
        <time>2012-05-13T10:06:41Z</time>
      </trkpt>
      <trkpt lat="42.178364" lon="1.538073">
        <ele>1938.5</ele>
        <time>2012-05-13T10:07:21Z</time>
      </trkpt>
      <trkpt lat="42.178499" lon="1.538055">
        <ele>1939.5</ele>
        <time>2012-05-13T10:08:01Z</time>
      </trkpt>
      <trkpt lat="42.178633" lon="1.538037">
        <ele>1940.9</ele>
        <time>2012-05-13T10:08:41Z</time>
      </trkpt>
      <trkpt lat="42.178732" lon="1.538083">
        <ele>1942.5</ele>
        <time>2012-05-13T10:09:21Z</time>
      </trkpt>
      <trkpt lat="42.178830" lon="1.538130">
        <ele>1944.5</ele>
        <time>2012-05-13T10:10:01Z</time>
      </trkpt>
      <trkpt lat="42.178929" lon="1.538177">
        <ele>1947.0</ele>
        <time>2012-05-13T10:10:41Z</time>
      </trkpt>
      <trkpt lat="42.179028" lon="1.538224">
        <ele>1949.1</ele>
        <time>2012-05-13T10:11:21Z</time>
      </trkpt>
      <trkpt lat="42.179129" lon="1.538251">
        <ele>1951.0</ele>
        <time>2012-05-13T10:12:01Z</time>
      </trkpt>
      <trkpt lat="42.179230" lon="1.538279">
        <ele>1953.0</ele>
        <time>2012-05-13T10:12:41Z</time>
      </trkpt>
      <trkpt lat="42.179332" lon="1.538307">
        <ele>1955.3</ele>
        <time>2012-05-13T10:13:21Z</time>
      </trkpt>
      <trkpt lat="42.179466" lon="1.538296">
        <ele>1958.6</ele>
        <time>2012-05-13T10:14:01Z</time>
      </trkpt>
      <trkpt lat="42.179600" lon="1.538286">
        <ele>1962.6</ele>
        <time>2012-05-13T10:14:41Z</time>
      </trkpt>
      <trkpt lat="42.179697" lon="1.538243">
        <ele>1965.5</ele>
        <time>2012-05-13T10:15:21Z</time>
      </trkpt>
      <trkpt lat="42.179794" lon="1.538201">
        <ele>1968.1</ele>
        <time>2012-05-13T10:16:01Z</time>
      </trkpt>
      <trkpt lat="42.179890" lon="1.538159">
        <ele>1970.9</ele>
        <time>2012-05-13T10:16:41Z</time>
      </trkpt>
      <trkpt lat="42.179964" lon="1.538076">
        <ele>1973.9</ele>
        <time>2012-05-13T10:17:21Z</time>
      </trkpt>
      <trkpt lat="42.180037" lon="1.537994">
        <ele>1976.3</ele>
        <time>2012-05-13T10:18:01Z</time>
      </trkpt>
      <trkpt lat="42.180111" lon="1.537912">
        <ele>1979.2</ele>
        <time>2012-05-13T10:18:41Z</time>
      </trkpt>
      <trkpt lat="42.180171" lon="1.537775">
        <ele>1981.9</ele>
        <time>2012-05-13T10:19:21Z</time>
      </trkpt>
      <trkpt lat="42.180231" lon="1.537638">
        <ele>1985.0</ele>
        <time>2012-05-13T10:20:01Z</time>
      </trkpt>
      <trkpt lat="42.180332" lon="1.537585">
        <ele>1987.9</ele>
        <time>2012-05-13T10:20:41Z</time>
      </trkpt>
      <trkpt lat="42.180433" lon="1.537531">
        <ele>1991.2</ele>
        <time>2012-05-13T10:21:21Z</time>
      </trkpt>
      <trkpt lat="42.180534" lon="1.537477">
        <ele>1995.0</ele>
        <time>2012-05-13T10:22:01Z</time>
      </trkpt>
      <trkpt lat="42.180635" lon="1.537424">
        <ele>1998.7</ele>
        <time>2012-05-13T10:22:41Z</time>
      </trkpt>
      <trkpt lat="42.180736" lon="1.537370">
        <ele>2001.9</ele>
        <time>2012-05-13T10:23:21Z</time>
      </trkpt>
      <trkpt lat="42.180850" lon="1.537287">
        <ele>2006.8</ele>
        <time>2012-05-13T10:24:01Z</time>
      </trkpt>
      <trkpt lat="42.180965" lon="1.537204">
        <ele>2011.9</ele>
        <time>2012-05-13T10:24:41Z</time>
      </trkpt>
      <trkpt lat="42.181080" lon="1.537121">
        <ele>2017.4</ele>
        <time>2012-05-13T10:25:21Z</time>
      </trkpt>
      <trkpt lat="42.181195" lon="1.537028">
        <ele>2023.8</ele>
        <time>2012-05-13T10:26:01Z</time>
      </trkpt>
      <trkpt lat="42.181309" lon="1.536935">
        <ele>2030.8</ele>
        <time>2012-05-13T10:26:41Z</time>
      </trkpt>
      <trkpt lat="42.181424" lon="1.536842">
        <ele>2036.0</ele>
        <time>2012-05-13T10:27:21Z</time>
      </trkpt>
      <trkpt lat="42.181532" lon="1.536786">
        <ele>2040.6</ele>
        <time>2012-05-13T10:28:01Z</time>
      </trkpt>
      <trkpt lat="42.181640" lon="1.536729">
        <ele>2045.2</ele>
        <time>2012-05-13T10:28:41Z</time>
      </trkpt>
      <trkpt lat="42.181748" lon="1.536673">
        <ele>2049.5</ele>
        <time>2012-05-13T10:29:21Z</time>
      </trkpt>
      <trkpt lat="42.181856" lon="1.536617">
        <ele>2054.6</ele>
        <time>2012-05-13T10:30:01Z</time>
      </trkpt>
      <trkpt lat="42.181965" lon="1.536560">
        <ele>2060.1</ele>
        <time>2012-05-13T10:30:41Z</time>
      </trkpt>
      <trkpt lat="42.182073" lon="1.536504">
        <ele>2064.6</ele>
        <time>2012-05-13T10:31:21Z</time>
      </trkpt>
      <trkpt lat="42.182181" lon="1.536448">
        <ele>2068.6</ele>
        <time>2012-05-13T10:32:01Z</time>
      </trkpt>
      <trkpt lat="42.182280" lon="1.536340">
        <ele>2073.3</ele>
        <time>2012-05-13T10:32:41Z</time>
      </trkpt>
      <trkpt lat="42.182380" lon="1.536232">
        <ele>2077.6</ele>
        <time>2012-05-13T10:33:21Z</time>
      </trkpt>
      <trkpt lat="42.182479" lon="1.536124">
        <ele>2080.8</ele>
        <time>2012-05-13T10:34:01Z</time>
      </trkpt>
      <trkpt lat="42.182583" lon="1.536016">
        <ele>2083.0</ele>
        <time>2012-05-13T10:34:41Z</time>
      </trkpt>
      <trkpt lat="42.182686" lon="1.535909">
        <ele>2085.7</ele>
        <time>2012-05-13T10:35:21Z</time>
      </trkpt>
      <trkpt lat="42.182789" lon="1.535801">
        <ele>2087.3</ele>
        <time>2012-05-13T10:36:01Z</time>
      </trkpt>
      <trkpt lat="42.182875" lon="1.535711">
        <ele>2089.4</ele>
        <time>2012-05-13T10:36:41Z</time>
      </trkpt>
      <trkpt lat="42.182962" lon="1.535622">
        <ele>2091.5</ele>
        <time>2012-05-13T10:37:21Z</time>
      </trkpt>
      <trkpt lat="42.183048" lon="1.535533">
        <ele>2095.1</ele>
        <time>2012-05-13T10:38:01Z</time>
      </trkpt>
      <trkpt lat="42.183134" lon="1.535443">
        <ele>2097.4</ele>
        <time>2012-05-13T10:38:41Z</time>
      </trkpt>
      <trkpt lat="42.183220" lon="1.535354">
        <ele>2100.2</ele>
        <time>2012-05-13T10:39:21Z</time>
      </trkpt>
      <trkpt lat="42.183315" lon="1.535265">
        <ele>2102.8</ele>
        <time>2012-05-13T10:40:01Z</time>
      </trkpt>
      <trkpt lat="42.183409" lon="1.535176">
        <ele>2106.0</ele>
        <time>2012-05-13T10:40:41Z</time>
      </trkpt>
      <trkpt lat="42.183503" lon="1.535087">
        <ele>2109.0</ele>
        <time>2012-05-13T10:41:21Z</time>
      </trkpt>
      <trkpt lat="42.183597" lon="1.534999">
        <ele>2113.5</ele>
        <time>2012-05-13T10:42:01Z</time>
      </trkpt>
      <trkpt lat="42.183666" lon="1.534882">
        <ele>2115.5</ele>
        <time>2012-05-13T10:42:41Z</time>
      </trkpt>
      <trkpt lat="42.183736" lon="1.534764">
        <ele>2119.5</ele>
        <time>2012-05-13T10:43:21Z</time>
      </trkpt>
      <trkpt lat="42.183805" lon="1.534647">
        <ele>2122.5</ele>
        <time>2012-05-13T10:44:01Z</time>
      </trkpt>
      <trkpt lat="42.183860" lon="1.534529">
        <ele>2125.2</ele>
        <time>2012-05-13T10:44:41Z</time>
      </trkpt>
      <trkpt lat="42.183914" lon="1.534411">
        <ele>2127.6</ele>
        <time>2012-05-13T10:45:21Z</time>
      </trkpt>
      <trkpt lat="42.183969" lon="1.534293">
        <ele>2131.0</ele>
        <time>2012-05-13T10:46:01Z</time>
      </trkpt>
      <trkpt lat="42.184024" lon="1.534175">
        <ele>2132.9</ele>
        <time>2012-05-13T10:46:41Z</time>
      </trkpt>
      <trkpt lat="42.184134" lon="1.534137">
        <ele>2136.0</ele>
        <time>2012-05-13T10:47:21Z</time>
      </trkpt>
      <trkpt lat="42.184245" lon="1.534099">
        <ele>2139.6</ele>
        <time>2012-05-13T10:48:01Z</time>
      </trkpt>
      <trkpt lat="42.184356" lon="1.534061">
        <ele>2142.8</ele>
        <time>2012-05-13T10:48:41Z</time>
      </trkpt>
      <trkpt lat="42.184441" lon="1.533994">
        <ele>2144.0</ele>
        <time>2012-05-13T10:49:21Z</time>
      </trkpt>
      <trkpt lat="42.184526" lon="1.533927">
        <ele>2146.8</ele>
        <time>2012-05-13T10:50:01Z</time>
      </trkpt>
      <trkpt lat="42.184611" lon="1.533860">
        <ele>2149.1</ele>
        <time>2012-05-13T10:50:41Z</time>
      </trkpt>
      <trkpt lat="42.184684" lon="1.533772">
        <ele>2149.1</ele>
        <time>2012-05-13T10:51:21Z</time>
      </trkpt>
      <trkpt lat="42.184758" lon="1.533685">
        <ele>2152.7</ele>
        <time>2012-05-13T10:52:01Z</time>
      </trkpt>
      <trkpt lat="42.184832" lon="1.533598">
        <ele>2154.3</ele>
        <time>2012-05-13T10:52:41Z</time>
      </trkpt>
      <trkpt lat="42.184897" lon="1.533479">
        <ele>2158.6</ele>
        <time>2012-05-13T10:53:21Z</time>
      </trkpt>
      <trkpt lat="42.184963" lon="1.533360">
        <ele>2160.6</ele>
        <time>2012-05-13T10:54:01Z</time>
      </trkpt>
      <trkpt lat="42.185029" lon="1.533241">
        <ele>2164.3</ele>
        <time>2012-05-13T10:54:41Z</time>
      </trkpt>
      <trkpt lat="42.185095" lon="1.533122">
        <ele>2167.9</ele>
        <time>2012-05-13T10:55:21Z</time>
      </trkpt>
      <trkpt lat="42.185160" lon="1.533003">
        <ele>2171.2</ele>
        <time>2012-05-13T10:56:01Z</time>
      </trkpt>
      <trkpt lat="42.185283" lon="1.532940">
        <ele>2174.4</ele>
        <time>2012-05-13T10:56:41Z</time>
      </trkpt>
      <trkpt lat="42.185405" lon="1.532877">
        <ele>2177.0</ele>
        <time>2012-05-13T10:57:21Z</time>
      </trkpt>
      <trkpt lat="42.185490" lon="1.532799">
        <ele>2179.0</ele>
        <time>2012-05-13T10:58:01Z</time>
      </trkpt>
      <trkpt lat="42.185575" lon="1.532722">
        <ele>2181.9</ele>
        <time>2012-05-13T10:58:41Z</time>
      </trkpt>
      <trkpt lat="42.185660" lon="1.532645">
        <ele>2183.3</ele>
        <time>2012-05-13T10:59:21Z</time>
      </trkpt>
      <trkpt lat="42.185746" lon="1.532549">
        <ele>2186.7</ele>
        <time>2012-05-13T11:00:01Z</time>
      </trkpt>
      <trkpt lat="42.185833" lon="1.532454">
        <ele>2189.6</ele>
        <time>2012-05-13T11:00:41Z</time>
      </trkpt>
      <trkpt lat="42.185919" lon="1.532358">
        <ele>2192.4</ele>
        <time>2012-05-13T11:01:21Z</time>
      </trkpt>
      <trkpt lat="42.186005" lon="1.532263">
        <ele>2193.4</ele>
        <time>2012-05-13T11:02:01Z</time>
      </trkpt>
      <trkpt lat="42.186091" lon="1.532167">
        <ele>2196.3</ele>
        <time>2012-05-13T11:02:41Z</time>
      </trkpt>
      <trkpt lat="42.186180" lon="1.532097">
        <ele>2197.4</ele>
        <time>2012-05-13T11:03:21Z</time>
      </trkpt>
      <trkpt lat="42.186269" lon="1.532028">
        <ele>2200.4</ele>
        <time>2012-05-13T11:04:01Z</time>
      </trkpt>
      <trkpt lat="42.186358" lon="1.531958">
        <ele>2203.1</ele>
        <time>2012-05-13T11:04:41Z</time>
      </trkpt>
      <trkpt lat="42.186446" lon="1.531888">
        <ele>2205.2</ele>
        <time>2012-05-13T11:05:21Z</time>
      </trkpt>
      <trkpt lat="42.186565" lon="1.531845">
        <ele>2207.1</ele>
        <time>2012-05-13T11:06:01Z</time>
      </trkpt>
      <trkpt lat="42.186684" lon="1.531802">
        <ele>2209.6</ele>
        <time>2012-05-13T11:06:41Z</time>
      </trkpt>
      <trkpt lat="42.186803" lon="1.531759">
        <ele>2212.7</ele>
        <time>2012-05-13T11:07:21Z</time>
      </trkpt>
      <trkpt lat="42.186935" lon="1.531801">
        <ele>2214.9</ele>
        <time>2012-05-13T11:08:01Z</time>
      </trkpt>
      <trkpt lat="42.187066" lon="1.531843">
        <ele>2217.0</ele>
        <time>2012-05-13T11:08:41Z</time>
      </trkpt>
      <trkpt lat="42.187197" lon="1.531886">
        <ele>2219.2</ele>
        <time>2012-05-13T11:09:21Z</time>
      </trkpt>
      <trkpt lat="42.187310" lon="1.531958">
        <ele>2221.9</ele>
        <time>2012-05-13T11:10:01Z</time>
      </trkpt>
      <trkpt lat="42.187423" lon="1.532031">
        <ele>2223.3</ele>
        <time>2012-05-13T11:10:41Z</time>
      </trkpt>
      <trkpt lat="42.187537" lon="1.532104">
        <ele>2225.5</ele>
        <time>2012-05-13T11:11:21Z</time>
      </trkpt>
      <trkpt lat="42.187630" lon="1.532218">
        <ele>2227.1</ele>
        <time>2012-05-13T11:12:01Z</time>
      </trkpt>
      <trkpt lat="42.187724" lon="1.532333">
        <ele>2228.9</ele>
        <time>2012-05-13T11:12:41Z</time>
      </trkpt>
      <trkpt lat="42.187818" lon="1.532448">
        <ele>2229.3</ele>
        <time>2012-05-13T11:13:21Z</time>
      </trkpt>
      <trkpt lat="42.187912" lon="1.532562">
        <ele>2231.0</ele>
        <time>2012-05-13T11:14:01Z</time>
      </trkpt>
      <trkpt lat="42.187997" lon="1.532690">
        <ele>2231.9</ele>
        <time>2012-05-13T11:14:41Z</time>
      </trkpt>
      <trkpt lat="42.188081" lon="1.532818">
        <ele>2232.2</ele>
        <time>2012-05-13T11:15:21Z</time>
      </trkpt>
      <trkpt lat="42.188166" lon="1.532945">
        <ele>2233.8</ele>
        <time>2012-05-13T11:16:01Z</time>
      </trkpt>
      <trkpt lat="42.188251" lon="1.533073">
        <ele>2234.2</ele>
        <time>2012-05-13T11:16:41Z</time>
      </trkpt>
      <trkpt lat="42.188335" lon="1.533201">
        <ele>2234.5</ele>
        <time>2012-05-13T11:17:21Z</time>
      </trkpt>
      <trkpt lat="42.188419" lon="1.533309">
        <ele>2234.6</ele>
        <time>2012-05-13T11:18:01Z</time>
      </trkpt>
      <trkpt lat="42.188502" lon="1.533418">
        <ele>2234.7</ele>
        <time>2012-05-13T11:18:41Z</time>
      </trkpt>
      <trkpt lat="42.188586" lon="1.533527">
        <ele>2235.5</ele>
        <time>2012-05-13T11:19:21Z</time>
      </trkpt>
      <trkpt lat="42.188667" lon="1.533739">
        <ele>2236.2</ele>
        <time>2012-05-13T11:20:01Z</time>
      </trkpt>
      <trkpt lat="42.188635" lon="1.533574">
        <ele>2235.9</ele>
        <time>2012-05-13T11:20:41Z</time>
      </trkpt>
      <trkpt lat="42.188602" lon="1.533409">
        <ele>2236.1</ele>
        <time>2012-05-13T11:21:21Z</time>
      </trkpt>
      <trkpt lat="42.188569" lon="1.533245">
        <ele>2236.6</ele>
        <time>2012-05-13T11:22:01Z</time>
      </trkpt>
      <trkpt lat="42.188517" lon="1.533088">
        <ele>2237.1</ele>
        <time>2012-05-13T11:22:41Z</time>
      </trkpt>
      <trkpt lat="42.188464" lon="1.532931">
        <ele>2237.7</ele>
        <time>2012-05-13T11:23:21Z</time>
      </trkpt>
      <trkpt lat="42.188412" lon="1.532775">
        <ele>2236.7</ele>
        <time>2012-05-13T11:24:01Z</time>
      </trkpt>
      <trkpt lat="42.188360" lon="1.532618">
        <ele>2236.4</ele>
        <time>2012-05-13T11:24:41Z</time>
      </trkpt>
      <trkpt lat="42.188307" lon="1.532461">
        <ele>2236.5</ele>
        <time>2012-05-13T11:25:21Z</time>
      </trkpt>
      <trkpt lat="42.188255" lon="1.532305">
        <ele>2236.5</ele>
        <time>2012-05-13T11:26:01Z</time>
      </trkpt>
      <trkpt lat="42.188203" lon="1.532148">
        <ele>2237.2</ele>
        <time>2012-05-13T11:26:41Z</time>
      </trkpt>
      <trkpt lat="42.188150" lon="1.531991">
        <ele>2238.1</ele>
        <time>2012-05-13T11:27:21Z</time>
      </trkpt>
      <trkpt lat="42.188098" lon="1.531835">
        <ele>2240.0</ele>
        <time>2012-05-13T11:28:01Z</time>
      </trkpt>
      <trkpt lat="42.188046" lon="1.531678">
        <ele>2242.9</ele>
        <time>2012-05-13T11:28:41Z</time>
      </trkpt>
      <trkpt lat="42.187993" lon="1.531521">
        <ele>2245.6</ele>
        <time>2012-05-13T11:29:21Z</time>
      </trkpt>
      <trkpt lat="42.187918" lon="1.531386">
        <ele>2248.1</ele>
        <time>2012-05-13T11:30:01Z</time>
      </trkpt>
      <trkpt lat="42.187842" lon="1.531252">
        <ele>2250.5</ele>
        <time>2012-05-13T11:30:41Z</time>
      </trkpt>
      <trkpt lat="42.187767" lon="1.531117">
        <ele>2253.2</ele>
        <time>2012-05-13T11:31:21Z</time>
      </trkpt>
      <trkpt lat="42.187691" lon="1.530982">
        <ele>2256.3</ele>
        <time>2012-05-13T11:32:01Z</time>
      </trkpt>
      <trkpt lat="42.187616" lon="1.530848">
        <ele>2259.1</ele>
        <time>2012-05-13T11:32:41Z</time>
      </trkpt>
      <trkpt lat="42.187540" lon="1.530713">
        <ele>2261.7</ele>
        <time>2012-05-13T11:33:21Z</time>
      </trkpt>
      <trkpt lat="42.187465" lon="1.530578">
        <ele>2264.4</ele>
        <time>2012-05-13T11:34:01Z</time>
      </trkpt>
      <trkpt lat="42.187389" lon="1.530444">
        <ele>2266.6</ele>
        <time>2012-05-13T11:34:41Z</time>
      </trkpt>
      <trkpt lat="42.187314" lon="1.530309">
        <ele>2268.5</ele>
        <time>2012-05-13T11:35:21Z</time>
      </trkpt>
      <trkpt lat="42.187238" lon="1.530174">
        <ele>2270.9</ele>
        <time>2012-05-13T11:36:01Z</time>
      </trkpt>
      <trkpt lat="42.187207" lon="1.530020">
        <ele>2276.9</ele>
        <time>2012-05-13T11:36:41Z</time>
      </trkpt>
      <trkpt lat="42.187176" lon="1.529865">
        <ele>2284.2</ele>
        <time>2012-05-13T11:37:21Z</time>
      </trkpt>
      <trkpt lat="42.187146" lon="1.529711">
        <ele>2291.8</ele>
        <time>2012-05-13T11:38:01Z</time>
      </trkpt>
      <trkpt lat="42.187115" lon="1.529557">
        <ele>2299.5</ele>
        <time>2012-05-13T11:38:41Z</time>
      </trkpt>
      <trkpt lat="42.187084" lon="1.529402">
        <ele>2307.3</ele>
        <time>2012-05-13T11:39:21Z</time>
      </trkpt>
      <trkpt lat="42.187053" lon="1.529248">
        <ele>2314.3</ele>
        <time>2012-05-13T11:40:01Z</time>
      </trkpt>
      <trkpt lat="42.187022" lon="1.529094">
        <ele>2320.0</ele>
        <time>2012-05-13T11:40:41Z</time>
      </trkpt>
      <trkpt lat="42.186992" lon="1.528939">
        <ele>2324.6</ele>
        <time>2012-05-13T11:41:21Z</time>
      </trkpt>
      <trkpt lat="42.187002" lon="1.528762">
        <ele>2329.6</ele>
        <time>2012-05-13T11:42:01Z</time>
      </trkpt>
      <trkpt lat="42.187014" lon="1.528585">
        <ele>2333.5</ele>
        <time>2012-05-13T11:42:41Z</time>
      </trkpt>
      <trkpt lat="42.187024" lon="1.528407">
        <ele>2337.0</ele>
        <time>2012-05-13T11:43:21Z</time>
      </trkpt>
      <trkpt lat="42.187035" lon="1.528230">
        <ele>2340.3</ele>
        <time>2012-05-13T11:44:01Z</time>
      </trkpt>
      <trkpt lat="42.187046" lon="1.528052">
        <ele>2343.0</ele>
        <time>2012-05-13T11:44:41Z</time>
      </trkpt>
      <trkpt lat="42.187057" lon="1.527875">
        <ele>2345.8</ele>
        <time>2012-05-13T11:45:21Z</time>
      </trkpt>
      <trkpt lat="42.187068" lon="1.527697">
        <ele>2348.6</ele>
        <time>2012-05-13T11:46:01Z</time>
      </trkpt>
      <trkpt lat="42.187066" lon="1.527524">
        <ele>2350.6</ele>
        <time>2012-05-13T11:46:41Z</time>
      </trkpt>
      <trkpt lat="42.187063" lon="1.527350">
        <ele>2352.7</ele>
        <time>2012-05-13T11:47:21Z</time>
      </trkpt>
      <trkpt lat="42.187061" lon="1.527176">
        <ele>2355.0</ele>
        <time>2012-05-13T11:48:01Z</time>
      </trkpt>
      <trkpt lat="42.187059" lon="1.527003">
        <ele>2356.2</ele>
        <time>2012-05-13T11:48:41Z</time>
      </trkpt>
      <trkpt lat="42.187057" lon="1.526829">
        <ele>2357.8</ele>
        <time>2012-05-13T11:49:21Z</time>
      </trkpt>
      <trkpt lat="42.187055" lon="1.526670">
        <ele>2358.3</ele>
        <time>2012-05-13T11:50:01Z</time>
      </trkpt>
      <trkpt lat="42.187053" lon="1.526510">
        <ele>2358.2</ele>
        <time>2012-05-13T11:50:41Z</time>
      </trkpt>
      <trkpt lat="42.187051" lon="1.526351">
        <ele>2357.8</ele>
        <time>2012-05-13T11:51:21Z</time>
      </trkpt>
      <trkpt lat="42.187049" lon="1.526192">
        <ele>2357.0</ele>
        <time>2012-05-13T11:52:01Z</time>
      </trkpt>
      <trkpt lat="42.187047" lon="1.526032">
        <ele>2355.7</ele>
        <time>2012-05-13T11:52:41Z</time>
      </trkpt>
      <trkpt lat="42.187045" lon="1.525873">
        <ele>2354.5</ele>
        <time>2012-05-13T11:53:21Z</time>
      </trkpt>
      <trkpt lat="42.187043" lon="1.525713">
        <ele>2353.2</ele>
        <time>2012-05-13T11:54:01Z</time>
      </trkpt>
      <trkpt lat="42.187000" lon="1.525551">
        <ele>2352.3</ele>
        <time>2012-05-13T11:54:41Z</time>
      </trkpt>
      <trkpt lat="42.186958" lon="1.525390">
        <ele>2351.9</ele>
        <time>2012-05-13T11:55:21Z</time>
      </trkpt>
      <trkpt lat="42.186915" lon="1.525228">
        <ele>2351.5</ele>
        <time>2012-05-13T11:56:01Z</time>
      </trkpt>
      <trkpt lat="42.186873" lon="1.525066">
        <ele>2350.6</ele>
        <time>2012-05-13T11:56:41Z</time>
      </trkpt>
      <trkpt lat="42.186830" lon="1.524904">
        <ele>2349.6</ele>
        <time>2012-05-13T11:57:21Z</time>
      </trkpt>
      <trkpt lat="42.186788" lon="1.524742">
        <ele>2348.6</ele>
        <time>2012-05-13T11:58:01Z</time>
      </trkpt>
      <trkpt lat="42.186745" lon="1.524580">
        <ele>2347.6</ele>
        <time>2012-05-13T11:58:41Z</time>
      </trkpt>
      <trkpt lat="42.186703" lon="1.524419">
        <ele>2347.1</ele>
        <time>2012-05-13T11:59:21Z</time>
      </trkpt>
      <trkpt lat="42.186655" lon="1.524254">
        <ele>2347.5</ele>
        <time>2012-05-13T12:00:01Z</time>
      </trkpt>
      <trkpt lat="42.186606" lon="1.524090">
        <ele>2347.8</ele>
        <time>2012-05-13T12:00:41Z</time>
      </trkpt>
      <trkpt lat="42.186558" lon="1.523926">
        <ele>2349.7</ele>
        <time>2012-05-13T12:01:21Z</time>
      </trkpt>
      <trkpt lat="42.186510" lon="1.523761">
        <ele>2351.3</ele>
        <time>2012-05-13T12:02:01Z</time>
      </trkpt>
      <trkpt lat="42.186462" lon="1.523597">
        <ele>2355.1</ele>
        <time>2012-05-13T12:02:41Z</time>
      </trkpt>
      <trkpt lat="42.186414" lon="1.523433">
        <ele>2359.8</ele>
        <time>2012-05-13T12:03:21Z</time>
      </trkpt>
      <trkpt lat="42.186320" lon="1.523306">
        <ele>2362.0</ele>
        <time>2012-05-13T12:04:01Z</time>
      </trkpt>
      <trkpt lat="42.186226" lon="1.523179">
        <ele>2364.3</ele>
        <time>2012-05-13T12:04:41Z</time>
      </trkpt>
      <trkpt lat="42.186132" lon="1.523052">
        <ele>2367.7</ele>
        <time>2012-05-13T12:05:21Z</time>
      </trkpt>
      <trkpt lat="42.186038" lon="1.522925">
        <ele>2370.4</ele>
        <time>2012-05-13T12:06:01Z</time>
      </trkpt>
      <trkpt lat="42.185944" lon="1.522798">
        <ele>2371.8</ele>
        <time>2012-05-13T12:06:41Z</time>
      </trkpt>
      <trkpt lat="42.185850" lon="1.522671">
        <ele>2372.1</ele>
        <time>2012-05-13T12:07:21Z</time>
      </trkpt>
      <trkpt lat="42.185756" lon="1.522544">
        <ele>2371.2</ele>
        <time>2012-05-13T12:08:01Z</time>
      </trkpt>
      <trkpt lat="42.185662" lon="1.522417">
        <ele>2369.8</ele>
        <time>2012-05-13T12:08:41Z</time>
      </trkpt>
      <trkpt lat="42.185568" lon="1.522290">
        <ele>2367.5</ele>
        <time>2012-05-13T12:09:21Z</time>
      </trkpt>
      <trkpt lat="42.185475" lon="1.522163">
        <ele>2364.9</ele>
        <time>2012-05-13T12:10:01Z</time>
      </trkpt>
      <trkpt lat="42.185381" lon="1.522036">
        <ele>2363.9</ele>
        <time>2012-05-13T12:10:41Z</time>
      </trkpt>
      <trkpt lat="42.185287" lon="1.521909">
        <ele>2364.2</ele>
        <time>2012-05-13T12:11:21Z</time>
      </trkpt>
      <trkpt lat="42.185204" lon="1.521771">
        <ele>2366.1</ele>
        <time>2012-05-13T12:12:01Z</time>
      </trkpt>
      <trkpt lat="42.185122" lon="1.521633">
        <ele>2370.0</ele>
        <time>2012-05-13T12:12:41Z</time>
      </trkpt>
      <trkpt lat="42.185039" lon="1.521496">
        <ele>2373.9</ele>
        <time>2012-05-13T12:13:21Z</time>
      </trkpt>
      <trkpt lat="42.184957" lon="1.521358">
        <ele>2378.2</ele>
        <time>2012-05-13T12:14:01Z</time>
      </trkpt>
      <trkpt lat="42.184874" lon="1.521220">
        <ele>2382.2</ele>
        <time>2012-05-13T12:14:41Z</time>
      </trkpt>
      <trkpt lat="42.184792" lon="1.521083">
        <ele>2385.3</ele>
        <time>2012-05-13T12:15:21Z</time>
      </trkpt>
      <trkpt lat="42.184709" lon="1.520945">
        <ele>2386.4</ele>
        <time>2012-05-13T12:16:01Z</time>
      </trkpt>
      <trkpt lat="42.184627" lon="1.520807">
        <ele>2385.9</ele>
        <time>2012-05-13T12:16:41Z</time>
      </trkpt>
      <trkpt lat="42.184556" lon="1.520675">
        <ele>2384.5</ele>
        <time>2012-05-13T12:17:21Z</time>
      </trkpt>
      <trkpt lat="42.184485" lon="1.520542">
        <ele>2382.5</ele>
        <time>2012-05-13T12:18:01Z</time>
      </trkpt>
      <trkpt lat="42.184414" lon="1.520409">
        <ele>2381.4</ele>
        <time>2012-05-13T12:18:41Z</time>
      </trkpt>
      <trkpt lat="42.184104" lon="1.519878">
        <ele>2384.3</ele>
        <time>2012-05-13T12:19:21Z</time>
      </trkpt>
      <trkpt lat="42.183992" lon="1.519901">
        <ele>2383.6</ele>
        <time>2012-05-13T12:20:01Z</time>
      </trkpt>
      <trkpt lat="42.183879" lon="1.519925">
        <ele>2380.0</ele>
        <time>2012-05-13T12:20:41Z</time>
      </trkpt>
      <trkpt lat="42.183766" lon="1.519948">
        <ele>2374.0</ele>
        <time>2012-05-13T12:21:21Z</time>
      </trkpt>
      <trkpt lat="42.183654" lon="1.519971">
        <ele>2367.8</ele>
        <time>2012-05-13T12:22:01Z</time>
      </trkpt>
      <trkpt lat="42.183541" lon="1.519995">
        <ele>2361.0</ele>
        <time>2012-05-13T12:22:41Z</time>
      </trkpt>
      <trkpt lat="42.183447" lon="1.520106">
        <ele>2353.6</ele>
        <time>2012-05-13T12:23:21Z</time>
      </trkpt>
      <trkpt lat="42.183353" lon="1.520216">
        <ele>2347.3</ele>
        <time>2012-05-13T12:24:01Z</time>
      </trkpt>
      <trkpt lat="42.183259" lon="1.520327">
        <ele>2341.7</ele>
        <time>2012-05-13T12:24:41Z</time>
      </trkpt>
      <trkpt lat="42.183165" lon="1.520438">
        <ele>2336.8</ele>
        <time>2012-05-13T12:25:21Z</time>
      </trkpt>
      <trkpt lat="42.183071" lon="1.520549">
        <ele>2332.6</ele>
        <time>2012-05-13T12:26:01Z</time>
      </trkpt>
      <trkpt lat="42.182977" lon="1.520659">
        <ele>2330.0</ele>
        <time>2012-05-13T12:26:41Z</time>
      </trkpt>
      <trkpt lat="42.182883" lon="1.520770">
        <ele>2328.3</ele>
        <time>2012-05-13T12:27:21Z</time>
      </trkpt>
      <trkpt lat="42.182807" lon="1.520910">
        <ele>2326.5</ele>
        <time>2012-05-13T12:28:01Z</time>
      </trkpt>
      <trkpt lat="42.182732" lon="1.521050">
        <ele>2325.9</ele>
        <time>2012-05-13T12:28:41Z</time>
      </trkpt>
      <trkpt lat="42.182657" lon="1.521190">
        <ele>2325.9</ele>
        <time>2012-05-13T12:29:21Z</time>
      </trkpt>
      <trkpt lat="42.182582" lon="1.521330">
        <ele>2326.6</ele>
        <time>2012-05-13T12:30:01Z</time>
      </trkpt>
      <trkpt lat="42.182511" lon="1.521481">
        <ele>2327.8</ele>
        <time>2012-05-13T12:30:41Z</time>
      </trkpt>
      <trkpt lat="42.182440" lon="1.521633">
        <ele>2329.1</ele>
        <time>2012-05-13T12:31:21Z</time>
      </trkpt>
      <trkpt lat="42.182369" lon="1.521784">
        <ele>2330.3</ele>
        <time>2012-05-13T12:32:01Z</time>
      </trkpt>
      <trkpt lat="42.182298" lon="1.521935">
        <ele>2331.2</ele>
        <time>2012-05-13T12:32:41Z</time>
      </trkpt>
      <trkpt lat="42.182227" lon="1.522087">
        <ele>2331.5</ele>
        <time>2012-05-13T12:33:21Z</time>
      </trkpt>
      <trkpt lat="42.182157" lon="1.522238">
        <ele>2331.9</ele>
        <time>2012-05-13T12:34:01Z</time>
      </trkpt>
      <trkpt lat="42.182033" lon="1.522241">
        <ele>2331.6</ele>
        <time>2012-05-13T12:34:41Z</time>
      </trkpt>
      <trkpt lat="42.181910" lon="1.522244">
        <ele>2331.2</ele>
        <time>2012-05-13T12:35:21Z</time>
      </trkpt>
      <trkpt lat="42.181787" lon="1.522247">
        <ele>2331.0</ele>
        <time>2012-05-13T12:36:01Z</time>
      </trkpt>
      <trkpt lat="42.181663" lon="1.522250">
        <ele>2331.2</ele>
        <time>2012-05-13T12:36:41Z</time>
      </trkpt>
      <trkpt lat="42.181540" lon="1.522253">
        <ele>2332.0</ele>
        <time>2012-05-13T12:37:21Z</time>
      </trkpt>
      <trkpt lat="42.181417" lon="1.522255">
        <ele>2332.9</ele>
        <time>2012-05-13T12:38:01Z</time>
      </trkpt>
      <trkpt lat="42.181294" lon="1.522258">
        <ele>2333.9</ele>
        <time>2012-05-13T12:38:41Z</time>
      </trkpt>
      <trkpt lat="42.181170" lon="1.522261">
        <ele>2335.0</ele>
        <time>2012-05-13T12:39:21Z</time>
      </trkpt>
      <trkpt lat="42.181047" lon="1.522264">
        <ele>2335.9</ele>
        <time>2012-05-13T12:40:01Z</time>
      </trkpt>
      <trkpt lat="42.180924" lon="1.522267">
        <ele>2336.7</ele>
        <time>2012-05-13T12:40:41Z</time>
      </trkpt>
      <trkpt lat="42.180800" lon="1.522270">
        <ele>2337.6</ele>
        <time>2012-05-13T12:41:21Z</time>
      </trkpt>
      <trkpt lat="42.180677" lon="1.522273">
        <ele>2338.8</ele>
        <time>2012-05-13T12:42:01Z</time>
      </trkpt>
      <trkpt lat="42.180554" lon="1.522275">
        <ele>2340.2</ele>
        <time>2012-05-13T12:42:41Z</time>
      </trkpt>
      <trkpt lat="42.180430" lon="1.522278">
        <ele>2341.8</ele>
        <time>2012-05-13T12:43:21Z</time>
      </trkpt>
      <trkpt lat="42.180307" lon="1.522281">
        <ele>2343.4</ele>
        <time>2012-05-13T12:44:01Z</time>
      </trkpt>
      <trkpt lat="42.180182" lon="1.522232">
        <ele>2345.0</ele>
        <time>2012-05-13T12:44:41Z</time>
      </trkpt>
      <trkpt lat="42.180057" lon="1.522183">
        <ele>2346.1</ele>
        <time>2012-05-13T12:45:21Z</time>
      </trkpt>
      <trkpt lat="42.179932" lon="1.522135">
        <ele>2346.9</ele>
        <time>2012-05-13T12:46:01Z</time>
      </trkpt>
      <trkpt lat="42.179808" lon="1.522086">
        <ele>2347.8</ele>
        <time>2012-05-13T12:46:41Z</time>
      </trkpt>
      <trkpt lat="42.179683" lon="1.522037">
        <ele>2348.3</ele>
        <time>2012-05-13T12:47:21Z</time>
      </trkpt>
      <trkpt lat="42.179558" lon="1.521988">
        <ele>2347.7</ele>
        <time>2012-05-13T12:48:01Z</time>
      </trkpt>
      <trkpt lat="42.179496" lon="1.521839">
        <ele>2347.1</ele>
        <time>2012-05-13T12:48:41Z</time>
      </trkpt>
      <trkpt lat="42.179434" lon="1.521691">
        <ele>2346.5</ele>
        <time>2012-05-13T12:49:21Z</time>
      </trkpt>
      <trkpt lat="42.179373" lon="1.521543">
        <ele>2345.5</ele>
        <time>2012-05-13T12:50:01Z</time>
      </trkpt>
      <trkpt lat="42.179311" lon="1.521395">
        <ele>2344.8</ele>
        <time>2012-05-13T12:50:41Z</time>
      </trkpt>
      <trkpt lat="42.179249" lon="1.521246">
        <ele>2343.5</ele>
        <time>2012-05-13T12:51:21Z</time>
      </trkpt>
      <trkpt lat="42.179187" lon="1.521098">
        <ele>2342.3</ele>
        <time>2012-05-13T12:52:01Z</time>
      </trkpt>
      <trkpt lat="42.179104" lon="1.520960">
        <ele>2341.1</ele>
        <time>2012-05-13T12:52:41Z</time>
      </trkpt>
      <trkpt lat="42.179021" lon="1.520822">
        <ele>2339.9</ele>
        <time>2012-05-13T12:53:21Z</time>
      </trkpt>
      <trkpt lat="42.178938" lon="1.520684">
        <ele>2339.6</ele>
        <time>2012-05-13T12:54:01Z</time>
      </trkpt>
      <trkpt lat="42.178855" lon="1.520546">
        <ele>2340.4</ele>
        <time>2012-05-13T12:54:41Z</time>
      </trkpt>
      <trkpt lat="42.178772" lon="1.520408">
        <ele>2340.9</ele>
        <time>2012-05-13T12:55:21Z</time>
      </trkpt>
      <trkpt lat="42.178689" lon="1.520270">
        <ele>2340.8</ele>
        <time>2012-05-13T12:56:01Z</time>
      </trkpt>
      <trkpt lat="42.178606" lon="1.520132">
        <ele>2340.7</ele>
        <time>2012-05-13T12:56:41Z</time>
      </trkpt>
      <trkpt lat="42.178524" lon="1.519994">
        <ele>2339.5</ele>
        <time>2012-05-13T12:57:21Z</time>
      </trkpt>
      <trkpt lat="42.178441" lon="1.519856">
        <ele>2338.4</ele>
        <time>2012-05-13T12:58:01Z</time>
      </trkpt>
      <trkpt lat="42.178358" lon="1.519718">
        <ele>2337.2</ele>
        <time>2012-05-13T12:58:41Z</time>
      </trkpt>
      <trkpt lat="42.178275" lon="1.519579">
        <ele>2336.4</ele>
        <time>2012-05-13T12:59:21Z</time>
      </trkpt>
      <trkpt lat="42.178192" lon="1.519441">
        <ele>2335.7</ele>
        <time>2012-05-13T13:00:01Z</time>
      </trkpt>
      <trkpt lat="42.178109" lon="1.519303">
        <ele>2334.8</ele>
        <time>2012-05-13T13:00:41Z</time>
      </trkpt>
      <trkpt lat="42.178026" lon="1.519165">
        <ele>2334.1</ele>
        <time>2012-05-13T13:01:21Z</time>
      </trkpt>
      <trkpt lat="42.177943" lon="1.519027">
        <ele>2332.9</ele>
        <time>2012-05-13T13:02:01Z</time>
      </trkpt>
      <trkpt lat="42.177860" lon="1.518889">
        <ele>2331.8</ele>
        <time>2012-05-13T13:02:41Z</time>
      </trkpt>
      <trkpt lat="42.177777" lon="1.518751">
        <ele>2330.6</ele>
        <time>2012-05-13T13:03:21Z</time>
      </trkpt>
      <trkpt lat="42.177694" lon="1.518613">
        <ele>2328.8</ele>
        <time>2012-05-13T13:04:01Z</time>
      </trkpt>
      <trkpt lat="42.177612" lon="1.518475">
        <ele>2327.2</ele>
        <time>2012-05-13T13:04:41Z</time>
      </trkpt>
      <trkpt lat="42.177516" lon="1.518362">
        <ele>2326.3</ele>
        <time>2012-05-13T13:05:21Z</time>
      </trkpt>
      <trkpt lat="42.177420" lon="1.518249">
        <ele>2325.5</ele>
        <time>2012-05-13T13:06:01Z</time>
      </trkpt>
      <trkpt lat="42.177325" lon="1.518136">
        <ele>2324.6</ele>
        <time>2012-05-13T13:06:41Z</time>
      </trkpt>
      <trkpt lat="42.177229" lon="1.518023">
        <ele>2322.8</ele>
        <time>2012-05-13T13:07:21Z</time>
      </trkpt>
      <trkpt lat="42.177133" lon="1.517910">
        <ele>2321.2</ele>
        <time>2012-05-13T13:08:01Z</time>
      </trkpt>
      <trkpt lat="42.177038" lon="1.517798">
        <ele>2319.5</ele>
        <time>2012-05-13T13:08:41Z</time>
      </trkpt>
      <trkpt lat="42.176944" lon="1.517857">
        <ele>2317.5</ele>
        <time>2012-05-13T13:09:21Z</time>
      </trkpt>
      <trkpt lat="42.176851" lon="1.517917">
        <ele>2315.3</ele>
        <time>2012-05-13T13:10:01Z</time>
      </trkpt>
      <trkpt lat="42.176757" lon="1.517977">
        <ele>2312.9</ele>
        <time>2012-05-13T13:10:41Z</time>
      </trkpt>
      <trkpt lat="42.176649" lon="1.518074">
        <ele>2309.3</ele>
        <time>2012-05-13T13:11:21Z</time>
      </trkpt>
      <trkpt lat="42.176541" lon="1.518172">
        <ele>2304.7</ele>
        <time>2012-05-13T13:12:01Z</time>
      </trkpt>
      <trkpt lat="42.176433" lon="1.518269">
        <ele>2301.1</ele>
        <time>2012-05-13T13:12:41Z</time>
      </trkpt>
      <trkpt lat="42.176325" lon="1.518367">
        <ele>2299.4</ele>
        <time>2012-05-13T13:13:21Z</time>
      </trkpt>
      <trkpt lat="42.176216" lon="1.518378">
        <ele>2298.4</ele>
        <time>2012-05-13T13:14:01Z</time>
      </trkpt>
      <trkpt lat="42.176107" lon="1.518389">
        <ele>2298.4</ele>
        <time>2012-05-13T13:14:41Z</time>
      </trkpt>
      <trkpt lat="42.175998" lon="1.518400">
        <ele>2299.0</ele>
        <time>2012-05-13T13:15:21Z</time>
      </trkpt>
      <trkpt lat="42.175889" lon="1.518412">
        <ele>2299.6</ele>
        <time>2012-05-13T13:16:01Z</time>
      </trkpt>
      <trkpt lat="42.175775" lon="1.518338">
        <ele>2299.7</ele>
        <time>2012-05-13T13:16:41Z</time>
      </trkpt>
      <trkpt lat="42.175661" lon="1.518265">
        <ele>2298.8</ele>
        <time>2012-05-13T13:17:21Z</time>
      </trkpt>
      <trkpt lat="42.175547" lon="1.518191">
        <ele>2298.0</ele>
        <time>2012-05-13T13:18:01Z</time>
      </trkpt>
      <trkpt lat="42.175433" lon="1.518118">
        <ele>2295.7</ele>
        <time>2012-05-13T13:18:41Z</time>
      </trkpt>
      <trkpt lat="42.175319" lon="1.518045">
        <ele>2293.4</ele>
        <time>2012-05-13T13:19:21Z</time>
      </trkpt>
      <trkpt lat="42.175195" lon="1.518026">
        <ele>2291.6</ele>
        <time>2012-05-13T13:20:01Z</time>
      </trkpt>
      <trkpt lat="42.175071" lon="1.518007">
        <ele>2289.8</ele>
        <time>2012-05-13T13:20:41Z</time>
      </trkpt>
      <trkpt lat="42.174947" lon="1.517988">
        <ele>2287.8</ele>
        <time>2012-05-13T13:21:21Z</time>
      </trkpt>
      <trkpt lat="42.174823" lon="1.517969">
        <ele>2286.3</ele>
        <time>2012-05-13T13:22:01Z</time>
      </trkpt>
      <trkpt lat="42.174699" lon="1.517949">
        <ele>2285.3</ele>
        <time>2012-05-13T13:22:41Z</time>
      </trkpt>
      <trkpt lat="42.174575" lon="1.517930">
        <ele>2283.6</ele>
        <time>2012-05-13T13:23:21Z</time>
      </trkpt>
      <trkpt lat="42.174451" lon="1.517911">
        <ele>2281.4</ele>
        <time>2012-05-13T13:24:01Z</time>
      </trkpt>
      <trkpt lat="42.174327" lon="1.517892">
        <ele>2279.0</ele>
        <time>2012-05-13T13:24:41Z</time>
      </trkpt>
      <trkpt lat="42.174203" lon="1.517873">
        <ele>2276.9</ele>
        <time>2012-05-13T13:25:21Z</time>
      </trkpt>
      <trkpt lat="42.174079" lon="1.517854">
        <ele>2275.0</ele>
        <time>2012-05-13T13:26:01Z</time>
      </trkpt>
      <trkpt lat="42.173955" lon="1.517835">
        <ele>2272.9</ele>
        <time>2012-05-13T13:26:41Z</time>
      </trkpt>
      <trkpt lat="42.173829" lon="1.517777">
        <ele>2270.2</ele>
        <time>2012-05-13T13:27:21Z</time>
      </trkpt>
      <trkpt lat="42.173703" lon="1.517720">
        <ele>2268.1</ele>
        <time>2012-05-13T13:28:01Z</time>
      </trkpt>
      <trkpt lat="42.173576" lon="1.517662">
        <ele>2266.3</ele>
        <time>2012-05-13T13:28:41Z</time>
      </trkpt>
      <trkpt lat="42.173451" lon="1.517605">
        <ele>2264.0</ele>
        <time>2012-05-13T13:29:21Z</time>
      </trkpt>
      <trkpt lat="42.173325" lon="1.517547">
        <ele>2262.4</ele>
        <time>2012-05-13T13:30:01Z</time>
      </trkpt>
      <trkpt lat="42.173199" lon="1.517490">
        <ele>2261.2</ele>
        <time>2012-05-13T13:30:41Z</time>
      </trkpt>
      <trkpt lat="42.173073" lon="1.517432">
        <ele>2259.6</ele>
        <time>2012-05-13T13:31:21Z</time>
      </trkpt>
      <trkpt lat="42.172947" lon="1.517375">
        <ele>2258.2</ele>
        <time>2012-05-13T13:32:01Z</time>
      </trkpt>
      <trkpt lat="42.172825" lon="1.517373">
        <ele>2256.3</ele>
        <time>2012-05-13T13:32:41Z</time>
      </trkpt>
      <trkpt lat="42.172704" lon="1.517371">
        <ele>2253.9</ele>
        <time>2012-05-13T13:33:21Z</time>
      </trkpt>
      <trkpt lat="42.172583" lon="1.517369">
        <ele>2251.7</ele>
        <time>2012-05-13T13:34:01Z</time>
      </trkpt>
      <trkpt lat="42.172462" lon="1.517366">
        <ele>2249.3</ele>
        <time>2012-05-13T13:34:41Z</time>
      </trkpt>
      <trkpt lat="42.172341" lon="1.517364">
        <ele>2246.1</ele>
        <time>2012-05-13T13:35:21Z</time>
      </trkpt>
      <trkpt lat="42.172220" lon="1.517362">
        <ele>2243.4</ele>
        <time>2012-05-13T13:36:01Z</time>
      </trkpt>
      <trkpt lat="42.172098" lon="1.517360">
        <ele>2240.9</ele>
        <time>2012-05-13T13:36:41Z</time>
      </trkpt>
      <trkpt lat="42.171975" lon="1.517432">
        <ele>2237.7</ele>
        <time>2012-05-13T13:37:21Z</time>
      </trkpt>
      <trkpt lat="42.171852" lon="1.517504">
        <ele>2234.9</ele>
        <time>2012-05-13T13:38:01Z</time>
      </trkpt>
      <trkpt lat="42.171729" lon="1.517576">
        <ele>2231.9</ele>
        <time>2012-05-13T13:38:41Z</time>
      </trkpt>
      <trkpt lat="42.171605" lon="1.517648">
        <ele>2228.8</ele>
        <time>2012-05-13T13:39:21Z</time>
      </trkpt>
      <trkpt lat="42.171482" lon="1.517720">
        <ele>2225.8</ele>
        <time>2012-05-13T13:40:01Z</time>
      </trkpt>
      <trkpt lat="42.171359" lon="1.517792">
        <ele>2222.9</ele>
        <time>2012-05-13T13:40:41Z</time>
      </trkpt>
      <trkpt lat="42.171233" lon="1.517812">
        <ele>2220.4</ele>
        <time>2012-05-13T13:41:21Z</time>
      </trkpt>
      <trkpt lat="42.171107" lon="1.517833">
        <ele>2217.9</ele>
        <time>2012-05-13T13:42:01Z</time>
      </trkpt>
      <trkpt lat="42.170980" lon="1.517854">
        <ele>2215.3</ele>
        <time>2012-05-13T13:42:41Z</time>
      </trkpt>
      <trkpt lat="42.170854" lon="1.517874">
        <ele>2212.9</ele>
        <time>2012-05-13T13:43:21Z</time>
      </trkpt>
      <trkpt lat="42.170728" lon="1.517895">
        <ele>2211.0</ele>
        <time>2012-05-13T13:44:01Z</time>
      </trkpt>
      <trkpt lat="42.170601" lon="1.517916">
        <ele>2209.1</ele>
        <time>2012-05-13T13:44:41Z</time>
      </trkpt>
      <trkpt lat="42.170475" lon="1.517937">
        <ele>2206.6</ele>
        <time>2012-05-13T13:45:21Z</time>
      </trkpt>
      <trkpt lat="42.170355" lon="1.517984">
        <ele>2203.9</ele>
        <time>2012-05-13T13:46:01Z</time>
      </trkpt>
      <trkpt lat="42.170234" lon="1.518031">
        <ele>2201.4</ele>
        <time>2012-05-13T13:46:41Z</time>
      </trkpt>
      <trkpt lat="42.170114" lon="1.518079">
        <ele>2198.8</ele>
        <time>2012-05-13T13:47:21Z</time>
      </trkpt>
      <trkpt lat="42.169993" lon="1.518126">
        <ele>2195.9</ele>
        <time>2012-05-13T13:48:01Z</time>
      </trkpt>
      <trkpt lat="42.169872" lon="1.518173">
        <ele>2192.7</ele>
        <time>2012-05-13T13:48:41Z</time>
      </trkpt>
      <trkpt lat="42.169752" lon="1.518220">
        <ele>2189.2</ele>
        <time>2012-05-13T13:49:21Z</time>
      </trkpt>
      <trkpt lat="42.169631" lon="1.518267">
        <ele>2185.6</ele>
        <time>2012-05-13T13:50:01Z</time>
      </trkpt>
      <trkpt lat="42.169510" lon="1.518280">
        <ele>2182.5</ele>
        <time>2012-05-13T13:50:41Z</time>
      </trkpt>
      <trkpt lat="42.169389" lon="1.518293">
        <ele>2179.4</ele>
        <time>2012-05-13T13:51:21Z</time>
      </trkpt>
      <trkpt lat="42.169268" lon="1.518305">
        <ele>2176.1</ele>
        <time>2012-05-13T13:52:01Z</time>
      </trkpt>
      <trkpt lat="42.169147" lon="1.518318">
        <ele>2172.9</ele>
        <time>2012-05-13T13:52:41Z</time>
      </trkpt>
      <trkpt lat="42.169026" lon="1.518331">
        <ele>2170.1</ele>
        <time>2012-05-13T13:53:21Z</time>
      </trkpt>
      <trkpt lat="42.168905" lon="1.518344">
        <ele>2167.3</ele>
        <time>2012-05-13T13:54:01Z</time>
      </trkpt>
      <trkpt lat="42.168784" lon="1.518356">
        <ele>2165.7</ele>
        <time>2012-05-13T13:54:41Z</time>
      </trkpt>
      <trkpt lat="42.168685" lon="1.518445">
        <ele>2164.3</ele>
        <time>2012-05-13T13:55:21Z</time>
      </trkpt>
      <trkpt lat="42.168587" lon="1.518534">
        <ele>2162.5</ele>
        <time>2012-05-13T13:56:01Z</time>
      </trkpt>
      <trkpt lat="42.168489" lon="1.518622">
        <ele>2160.3</ele>
        <time>2012-05-13T13:56:41Z</time>
      </trkpt>
      <trkpt lat="42.168390" lon="1.518711">
        <ele>2158.1</ele>
        <time>2012-05-13T13:57:21Z</time>
      </trkpt>
      <trkpt lat="42.168292" lon="1.518800">
        <ele>2155.7</ele>
        <time>2012-05-13T13:58:01Z</time>
      </trkpt>
      <trkpt lat="42.168193" lon="1.518889">
        <ele>2152.9</ele>
        <time>2012-05-13T13:58:41Z</time>
      </trkpt>
      <trkpt lat="42.168095" lon="1.518977">
        <ele>2149.7</ele>
        <time>2012-05-13T13:59:21Z</time>
      </trkpt>
      <trkpt lat="42.167996" lon="1.519066">
        <ele>2146.4</ele>
        <time>2012-05-13T14:00:01Z</time>
      </trkpt>
      <trkpt lat="42.167885" lon="1.519115">
        <ele>2143.0</ele>
        <time>2012-05-13T14:00:41Z</time>
      </trkpt>
      <trkpt lat="42.167775" lon="1.519163">
        <ele>2139.3</ele>
        <time>2012-05-13T14:01:21Z</time>
      </trkpt>
      <trkpt lat="42.167664" lon="1.519212">
        <ele>2135.2</ele>
        <time>2012-05-13T14:02:01Z</time>
      </trkpt>
      <trkpt lat="42.167553" lon="1.519261">
        <ele>2130.8</ele>
        <time>2012-05-13T14:02:41Z</time>
      </trkpt>
      <trkpt lat="42.167442" lon="1.519309">
        <ele>2126.5</ele>
        <time>2012-05-13T14:03:21Z</time>
      </trkpt>
      <trkpt lat="42.167331" lon="1.519358">
        <ele>2122.1</ele>
        <time>2012-05-13T14:04:01Z</time>
      </trkpt>
      <trkpt lat="42.167209" lon="1.519409">
        <ele>2117.2</ele>
        <time>2012-05-13T14:04:41Z</time>
      </trkpt>
      <trkpt lat="42.167086" lon="1.519460">
        <ele>2112.3</ele>
        <time>2012-05-13T14:05:21Z</time>
      </trkpt>
      <trkpt lat="42.166963" lon="1.519511">
        <ele>2107.3</ele>
        <time>2012-05-13T14:06:01Z</time>
      </trkpt>
      <trkpt lat="42.166841" lon="1.519563">
        <ele>2103.2</ele>
        <time>2012-05-13T14:06:41Z</time>
      </trkpt>
      <trkpt lat="42.166718" lon="1.519614">
        <ele>2100.0</ele>
        <time>2012-05-13T14:07:21Z</time>
      </trkpt>
      <trkpt lat="42.166604" lon="1.519678">
        <ele>2097.0</ele>
        <time>2012-05-13T14:08:01Z</time>
      </trkpt>
      <trkpt lat="42.166491" lon="1.519742">
        <ele>2094.0</ele>
        <time>2012-05-13T14:08:41Z</time>
      </trkpt>
      <trkpt lat="42.166378" lon="1.519806">
        <ele>2091.5</ele>
        <time>2012-05-13T14:09:21Z</time>
      </trkpt>
      <trkpt lat="42.166264" lon="1.519870">
        <ele>2089.2</ele>
        <time>2012-05-13T14:10:01Z</time>
      </trkpt>
      <trkpt lat="42.166151" lon="1.519934">
        <ele>2087.7</ele>
        <time>2012-05-13T14:10:41Z</time>
      </trkpt>
      <trkpt lat="42.166037" lon="1.519998">
        <ele>2087.0</ele>
        <time>2012-05-13T14:11:21Z</time>
      </trkpt>
      <trkpt lat="42.165924" lon="1.520063">
        <ele>2085.7</ele>
        <time>2012-05-13T14:12:01Z</time>
      </trkpt>
      <trkpt lat="42.165810" lon="1.520127">
        <ele>2084.1</ele>
        <time>2012-05-13T14:12:41Z</time>
      </trkpt>
      <trkpt lat="42.165697" lon="1.520191">
        <ele>2082.5</ele>
        <time>2012-05-13T14:13:21Z</time>
      </trkpt>
      <trkpt lat="42.165564" lon="1.520217">
        <ele>2080.9</ele>
        <time>2012-05-13T14:14:01Z</time>
      </trkpt>
      <trkpt lat="42.165432" lon="1.520243">
        <ele>2079.5</ele>
        <time>2012-05-13T14:14:41Z</time>
      </trkpt>
      <trkpt lat="42.165299" lon="1.520269">
        <ele>2078.1</ele>
        <time>2012-05-13T14:15:21Z</time>
      </trkpt>
      <trkpt lat="42.165167" lon="1.520295">
        <ele>2076.7</ele>
        <time>2012-05-13T14:16:01Z</time>
      </trkpt>
      <trkpt lat="42.165034" lon="1.520321">
        <ele>2075.1</ele>
        <time>2012-05-13T14:16:41Z</time>
      </trkpt>
      <trkpt lat="42.164902" lon="1.520347">
        <ele>2073.5</ele>
        <time>2012-05-13T14:17:21Z</time>
      </trkpt>
      <trkpt lat="42.164786" lon="1.520359">
        <ele>2072.1</ele>
        <time>2012-05-13T14:18:01Z</time>
      </trkpt>
      <trkpt lat="42.164671" lon="1.520370">
        <ele>2070.5</ele>
        <time>2012-05-13T14:18:41Z</time>
      </trkpt>
      <trkpt lat="42.164555" lon="1.520381">
        <ele>2068.9</ele>
        <time>2012-05-13T14:19:21Z</time>
      </trkpt>
      <trkpt lat="42.164440" lon="1.520393">
        <ele>2067.5</ele>
        <time>2012-05-13T14:20:01Z</time>
      </trkpt>
      <trkpt lat="42.164311" lon="1.520361">
        <ele>2066.3</ele>
        <time>2012-05-13T14:20:41Z</time>
      </trkpt>
      <trkpt lat="42.164182" lon="1.520330">
        <ele>2065.0</ele>
        <time>2012-05-13T14:21:21Z</time>
      </trkpt>
      <trkpt lat="42.164053" lon="1.520298">
        <ele>2063.5</ele>
        <time>2012-05-13T14:22:01Z</time>
      </trkpt>
      <trkpt lat="42.163924" lon="1.520267">
        <ele>2061.9</ele>
        <time>2012-05-13T14:22:41Z</time>
      </trkpt>
      <trkpt lat="42.163795" lon="1.520235">
        <ele>2060.3</ele>
        <time>2012-05-13T14:23:21Z</time>
      </trkpt>
      <trkpt lat="42.163666" lon="1.520203">
        <ele>2058.7</ele>
        <time>2012-05-13T14:24:01Z</time>
      </trkpt>
      <trkpt lat="42.163532" lon="1.520203">
        <ele>2057.0</ele>
        <time>2012-05-13T14:24:41Z</time>
      </trkpt>
      <trkpt lat="42.163399" lon="1.520203">
        <ele>2055.6</ele>
        <time>2012-05-13T14:25:21Z</time>
      </trkpt>
      <trkpt lat="42.163265" lon="1.520202">
        <ele>2054.4</ele>
        <time>2012-05-13T14:26:01Z</time>
      </trkpt>
      <trkpt lat="42.163131" lon="1.520202">
        <ele>2053.3</ele>
        <time>2012-05-13T14:26:41Z</time>
      </trkpt>
      <trkpt lat="42.162998" lon="1.520202">
        <ele>2052.4</ele>
        <time>2012-05-13T14:27:21Z</time>
      </trkpt>
      <trkpt lat="42.162864" lon="1.520201">
        <ele>2052.0</ele>
        <time>2012-05-13T14:28:01Z</time>
      </trkpt>
      <trkpt lat="42.162730" lon="1.520201">
        <ele>2052.0</ele>
        <time>2012-05-13T14:28:41Z</time>
      </trkpt>
      <trkpt lat="42.162597" lon="1.520201">
        <ele>2052.1</ele>
        <time>2012-05-13T14:29:21Z</time>
      </trkpt>
      <trkpt lat="42.162463" lon="1.520200">
        <ele>2051.5</ele>
        <time>2012-05-13T14:30:01Z</time>
      </trkpt>
      <trkpt lat="42.162418" lon="1.520174">
        <ele>2050.9</ele>
        <time>2012-05-13T14:30:41Z</time>
      </trkpt>
      <trkpt lat="42.162516" lon="1.520275">
        <ele>2052.7</ele>
        <time>2012-05-13T14:31:21Z</time>
      </trkpt>
      <trkpt lat="42.162615" lon="1.520375">
        <ele>2053.8</ele>
        <time>2012-05-13T14:32:01Z</time>
      </trkpt>
      <trkpt lat="42.162713" lon="1.520475">
        <ele>2054.9</ele>
        <time>2012-05-13T14:32:41Z</time>
      </trkpt>
      <trkpt lat="42.162811" lon="1.520575">
        <ele>2056.3</ele>
        <time>2012-05-13T14:33:21Z</time>
      </trkpt>
      <trkpt lat="42.162910" lon="1.520676">
        <ele>2056.8</ele>
        <time>2012-05-13T14:34:01Z</time>
      </trkpt>
      <trkpt lat="42.163008" lon="1.520776">
        <ele>2058.2</ele>
        <time>2012-05-13T14:34:41Z</time>
      </trkpt>
      <trkpt lat="42.163107" lon="1.520876">
        <ele>2059.5</ele>
        <time>2012-05-13T14:35:21Z</time>
      </trkpt>
      <trkpt lat="42.163223" lon="1.520951">
        <ele>2060.7</ele>
        <time>2012-05-13T14:36:01Z</time>
      </trkpt>
      <trkpt lat="42.163340" lon="1.521026">
        <ele>2061.6</ele>
        <time>2012-05-13T14:36:41Z</time>
      </trkpt>
      <trkpt lat="42.163457" lon="1.521101">
        <ele>2062.9</ele>
        <time>2012-05-13T14:37:21Z</time>
      </trkpt>
      <trkpt lat="42.163573" lon="1.521176">
        <ele>2063.4</ele>
        <time>2012-05-13T14:38:01Z</time>
      </trkpt>
      <trkpt lat="42.163690" lon="1.521251">
        <ele>2063.9</ele>
        <time>2012-05-13T14:38:41Z</time>
      </trkpt>
      <trkpt lat="42.163806" lon="1.521326">
        <ele>2064.2</ele>
        <time>2012-05-13T14:39:21Z</time>
      </trkpt>
      <trkpt lat="42.163923" lon="1.521401">
        <ele>2064.3</ele>
        <time>2012-05-13T14:40:01Z</time>
      </trkpt>
      <trkpt lat="42.164039" lon="1.521476">
        <ele>2064.6</ele>
        <time>2012-05-13T14:40:41Z</time>
      </trkpt>
      <trkpt lat="42.164156" lon="1.521551">
        <ele>2065.6</ele>
        <time>2012-05-13T14:41:21Z</time>
      </trkpt>
      <trkpt lat="42.164273" lon="1.521626">
        <ele>2066.9</ele>
        <time>2012-05-13T14:42:01Z</time>
      </trkpt>
      <trkpt lat="42.164389" lon="1.521701">
        <ele>2068.3</ele>
        <time>2012-05-13T14:42:41Z</time>
      </trkpt>
      <trkpt lat="42.164506" lon="1.521776">
        <ele>2069.5</ele>
        <time>2012-05-13T14:43:21Z</time>
      </trkpt>
      <trkpt lat="42.164620" lon="1.521851">
        <ele>2070.7</ele>
        <time>2012-05-13T14:44:01Z</time>
      </trkpt>
      <trkpt lat="42.164734" lon="1.521926">
        <ele>2072.2</ele>
        <time>2012-05-13T14:44:41Z</time>
      </trkpt>
      <trkpt lat="42.164848" lon="1.522001">
        <ele>2073.5</ele>
        <time>2012-05-13T14:45:21Z</time>
      </trkpt>
      <trkpt lat="42.164963" lon="1.522076">
        <ele>2075.0</ele>
        <time>2012-05-13T14:46:01Z</time>
      </trkpt>
      <trkpt lat="42.165077" lon="1.522151">
        <ele>2076.4</ele>
        <time>2012-05-13T14:46:41Z</time>
      </trkpt>
      <trkpt lat="42.165191" lon="1.522226">
        <ele>2077.9</ele>
        <time>2012-05-13T14:47:21Z</time>
      </trkpt>
      <trkpt lat="42.165306" lon="1.522301">
        <ele>2079.3</ele>
        <time>2012-05-13T14:48:01Z</time>
      </trkpt>
      <trkpt lat="42.165420" lon="1.522376">
        <ele>2080.4</ele>
        <time>2012-05-13T14:48:41Z</time>
      </trkpt>
      <trkpt lat="42.165534" lon="1.522452">
        <ele>2081.4</ele>
        <time>2012-05-13T14:49:21Z</time>
      </trkpt>
      <trkpt lat="42.165649" lon="1.522526">
        <ele>2082.0</ele>
        <time>2012-05-13T14:50:01Z</time>
      </trkpt>
      <trkpt lat="42.165763" lon="1.522602">
        <ele>2083.3</ele>
        <time>2012-05-13T14:50:41Z</time>
      </trkpt>
      <trkpt lat="42.165877" lon="1.522677">
        <ele>2084.0</ele>
        <time>2012-05-13T14:51:21Z</time>
      </trkpt>
      <trkpt lat="42.165979" lon="1.522758">
        <ele>2084.9</ele>
        <time>2012-05-13T14:52:01Z</time>
      </trkpt>
      <trkpt lat="42.166080" lon="1.522840">
        <ele>2086.0</ele>
        <time>2012-05-13T14:52:41Z</time>
      </trkpt>
      <trkpt lat="42.166182" lon="1.522921">
        <ele>2086.6</ele>
        <time>2012-05-13T14:53:21Z</time>
      </trkpt>
      <trkpt lat="42.166284" lon="1.523003">
        <ele>2087.4</ele>
        <time>2012-05-13T14:54:01Z</time>
      </trkpt>
      <trkpt lat="42.166385" lon="1.523084">
        <ele>2087.9</ele>
        <time>2012-05-13T14:54:41Z</time>
      </trkpt>
      <trkpt lat="42.166487" lon="1.523166">
        <ele>2088.3</ele>
        <time>2012-05-13T14:55:21Z</time>
      </trkpt>
      <trkpt lat="42.166588" lon="1.523247">
        <ele>2088.3</ele>
        <time>2012-05-13T14:56:01Z</time>
      </trkpt>
      <trkpt lat="42.166690" lon="1.523329">
        <ele>2088.1</ele>
        <time>2012-05-13T14:56:41Z</time>
      </trkpt>
      <trkpt lat="42.166818" lon="1.523371">
        <ele>2088.3</ele>
        <time>2012-05-13T14:57:21Z</time>
      </trkpt>
      <trkpt lat="42.166946" lon="1.523413">
        <ele>2090.1</ele>
        <time>2012-05-13T14:58:01Z</time>
      </trkpt>
      <trkpt lat="42.167075" lon="1.523454">
        <ele>2092.3</ele>
        <time>2012-05-13T14:58:41Z</time>
      </trkpt>
      <trkpt lat="42.167203" lon="1.523496">
        <ele>2094.0</ele>
        <time>2012-05-13T14:59:21Z</time>
      </trkpt>
      <trkpt lat="42.167331" lon="1.523538">
        <ele>2095.1</ele>
        <time>2012-05-13T15:00:01Z</time>
      </trkpt>
      <trkpt lat="42.167451" lon="1.523610">
        <ele>2096.1</ele>
        <time>2012-05-13T15:00:41Z</time>
      </trkpt>
      <trkpt lat="42.167571" lon="1.523681">
        <ele>2096.7</ele>
        <time>2012-05-13T15:01:21Z</time>
      </trkpt>
      <trkpt lat="42.167690" lon="1.523753">
        <ele>2097.1</ele>
        <time>2012-05-13T15:02:01Z</time>
      </trkpt>
      <trkpt lat="42.167810" lon="1.523825">
        <ele>2097.3</ele>
        <time>2012-05-13T15:02:41Z</time>
      </trkpt>
      <trkpt lat="42.167930" lon="1.523897">
        <ele>2098.2</ele>
        <time>2012-05-13T15:03:21Z</time>
      </trkpt>
      <trkpt lat="42.168050" lon="1.523969">
        <ele>2098.9</ele>
        <time>2012-05-13T15:04:01Z</time>
      </trkpt>
      <trkpt lat="42.168170" lon="1.524041">
        <ele>2099.5</ele>
        <time>2012-05-13T15:04:41Z</time>
      </trkpt>
      <trkpt lat="42.168289" lon="1.524116">
        <ele>2100.3</ele>
        <time>2012-05-13T15:05:21Z</time>
      </trkpt>
      <trkpt lat="42.168409" lon="1.524191">
        <ele>2101.3</ele>
        <time>2012-05-13T15:06:01Z</time>
      </trkpt>
      <trkpt lat="42.168528" lon="1.524266">
        <ele>2102.0</ele>
        <time>2012-05-13T15:06:41Z</time>
      </trkpt>
      <trkpt lat="42.168648" lon="1.524342">
        <ele>2103.0</ele>
        <time>2012-05-13T15:07:21Z</time>
      </trkpt>
      <trkpt lat="42.168767" lon="1.524417">
        <ele>2104.3</ele>
        <time>2012-05-13T15:08:01Z</time>
      </trkpt>
      <trkpt lat="42.168887" lon="1.524492">
        <ele>2105.3</ele>
        <time>2012-05-13T15:08:41Z</time>
      </trkpt>
      <trkpt lat="42.169007" lon="1.524567">
        <ele>2106.4</ele>
        <time>2012-05-13T15:09:21Z</time>
      </trkpt>
      <trkpt lat="42.169126" lon="1.524642">
        <ele>2106.8</ele>
        <time>2012-05-13T15:10:01Z</time>
      </trkpt>
      <trkpt lat="42.169245" lon="1.524718">
        <ele>2107.2</ele>
        <time>2012-05-13T15:10:41Z</time>
      </trkpt>
      <trkpt lat="42.169365" lon="1.524793">
        <ele>2107.5</ele>
        <time>2012-05-13T15:11:21Z</time>
      </trkpt>
      <trkpt lat="42.169484" lon="1.524868">
        <ele>2108.2</ele>
        <time>2012-05-13T15:12:01Z</time>
      </trkpt>
      <trkpt lat="42.169583" lon="1.524975">
        <ele>2108.9</ele>
        <time>2012-05-13T15:12:41Z</time>
      </trkpt>
      <trkpt lat="42.169681" lon="1.525081">
        <ele>2110.6</ele>
        <time>2012-05-13T15:13:21Z</time>
      </trkpt>
      <trkpt lat="42.169780" lon="1.525188">
        <ele>2111.7</ele>
        <time>2012-05-13T15:14:01Z</time>
      </trkpt>
      <trkpt lat="42.169879" lon="1.525294">
        <ele>2112.6</ele>
        <time>2012-05-13T15:14:41Z</time>
      </trkpt>
      <trkpt lat="42.169977" lon="1.525401">
        <ele>2113.0</ele>
        <time>2012-05-13T15:15:21Z</time>
      </trkpt>
      <trkpt lat="42.170076" lon="1.525507">
        <ele>2113.8</ele>
        <time>2012-05-13T15:16:01Z</time>
      </trkpt>
      <trkpt lat="42.170174" lon="1.525613">
        <ele>2114.2</ele>
        <time>2012-05-13T15:16:41Z</time>
      </trkpt>
      <trkpt lat="42.170273" lon="1.525720">
        <ele>2114.6</ele>
        <time>2012-05-13T15:17:21Z</time>
      </trkpt>
      <trkpt lat="42.170371" lon="1.525827">
        <ele>2114.9</ele>
        <time>2012-05-13T15:18:01Z</time>
      </trkpt>
      <trkpt lat="42.170469" lon="1.525933">
        <ele>2115.2</ele>
        <time>2012-05-13T15:18:41Z</time>
      </trkpt>
      <trkpt lat="42.170568" lon="1.526040">
        <ele>2115.4</ele>
        <time>2012-05-13T15:19:21Z</time>
      </trkpt>
      <trkpt lat="42.170666" lon="1.526146">
        <ele>2115.6</ele>
        <time>2012-05-13T15:20:01Z</time>
      </trkpt>
      <trkpt lat="42.170724" lon="1.526294">
        <ele>2115.8</ele>
        <time>2012-05-13T15:20:41Z</time>
      </trkpt>
      <trkpt lat="42.170781" lon="1.526442">
        <ele>2116.3</ele>
        <time>2012-05-13T15:21:21Z</time>
      </trkpt>
      <trkpt lat="42.170839" lon="1.526590">
        <ele>2116.2</ele>
        <time>2012-05-13T15:22:01Z</time>
      </trkpt>
      <trkpt lat="42.170865" lon="1.526754">
        <ele>2116.2</ele>
        <time>2012-05-13T15:22:41Z</time>
      </trkpt>
      <trkpt lat="42.170890" lon="1.526919">
        <ele>2115.7</ele>
        <time>2012-05-13T15:23:21Z</time>
      </trkpt>
      <trkpt lat="42.170916" lon="1.527084">
        <ele>2114.8</ele>
        <time>2012-05-13T15:24:01Z</time>
      </trkpt>
      <trkpt lat="42.170942" lon="1.527248">
        <ele>2114.2</ele>
        <time>2012-05-13T15:24:41Z</time>
      </trkpt>
      <trkpt lat="42.170968" lon="1.527413">
        <ele>2113.9</ele>
        <time>2012-05-13T15:25:21Z</time>
      </trkpt>
      <trkpt lat="42.170994" lon="1.527577">
        <ele>2113.8</ele>
        <time>2012-05-13T15:26:01Z</time>
      </trkpt>
      <trkpt lat="42.171020" lon="1.527742">
        <ele>2113.8</ele>
        <time>2012-05-13T15:26:41Z</time>
      </trkpt>
      <trkpt lat="42.171087" lon="1.527896">
        <ele>2113.3</ele>
        <time>2012-05-13T15:27:21Z</time>
      </trkpt>
      <trkpt lat="42.171153" lon="1.528049">
        <ele>2112.3</ele>
        <time>2012-05-13T15:28:01Z</time>
      </trkpt>
      <trkpt lat="42.171220" lon="1.528203">
        <ele>2111.9</ele>
        <time>2012-05-13T15:28:41Z</time>
      </trkpt>
      <trkpt lat="42.171287" lon="1.528357">
        <ele>2111.7</ele>
        <time>2012-05-13T15:29:21Z</time>
      </trkpt>
      <trkpt lat="42.171353" lon="1.528511">
        <ele>2111.6</ele>
        <time>2012-05-13T15:30:01Z</time>
      </trkpt>
      <trkpt lat="42.171420" lon="1.528665">
        <ele>2111.6</ele>
        <time>2012-05-13T15:30:41Z</time>
      </trkpt>
      <trkpt lat="42.171502" lon="1.528794">
        <ele>2111.3</ele>
        <time>2012-05-13T15:31:21Z</time>
      </trkpt>
      <trkpt lat="42.171583" lon="1.528922">
        <ele>2110.8</ele>
        <time>2012-05-13T15:32:01Z</time>
      </trkpt>
      <trkpt lat="42.171664" lon="1.529051">
        <ele>2110.8</ele>
        <time>2012-05-13T15:32:41Z</time>
      </trkpt>
      <trkpt lat="42.171746" lon="1.529180">
        <ele>2110.5</ele>
        <time>2012-05-13T15:33:21Z</time>
      </trkpt>
      <trkpt lat="42.171827" lon="1.529308">
        <ele>2110.1</ele>
        <time>2012-05-13T15:34:01Z</time>
      </trkpt>
      <trkpt lat="42.171909" lon="1.529437">
        <ele>2109.2</ele>
        <time>2012-05-13T15:34:41Z</time>
      </trkpt>
      <trkpt lat="42.171990" lon="1.529566">
        <ele>2108.3</ele>
        <time>2012-05-13T15:35:21Z</time>
      </trkpt>
      <trkpt lat="42.172072" lon="1.529694">
        <ele>2107.4</ele>
        <time>2012-05-13T15:36:01Z</time>
      </trkpt>
      <trkpt lat="42.172115" lon="1.529836">
        <ele>2107.3</ele>
        <time>2012-05-13T15:36:41Z</time>
      </trkpt>
      <trkpt lat="42.172158" lon="1.529978">
        <ele>2108.1</ele>
        <time>2012-05-13T15:37:21Z</time>
      </trkpt>
      <trkpt lat="42.172202" lon="1.530120">
        <ele>2108.5</ele>
        <time>2012-05-13T15:38:01Z</time>
      </trkpt>
      <trkpt lat="42.172245" lon="1.530262">
        <ele>2107.8</ele>
        <time>2012-05-13T15:38:41Z</time>
      </trkpt>
      <trkpt lat="42.172289" lon="1.530404">
        <ele>2108.3</ele>
        <time>2012-05-13T15:39:21Z</time>
      </trkpt>
      <trkpt lat="42.172332" lon="1.530546">
        <ele>2107.6</ele>
        <time>2012-05-13T15:40:01Z</time>
      </trkpt>
      <trkpt lat="42.172400" lon="1.530671">
        <ele>2106.1</ele>
        <time>2012-05-13T15:40:41Z</time>
      </trkpt>
      <trkpt lat="42.172469" lon="1.530797">
        <ele>2105.8</ele>
        <time>2012-05-13T15:41:21Z</time>
      </trkpt>
      <trkpt lat="42.172537" lon="1.530922">
        <ele>2105.1</ele>
        <time>2012-05-13T15:42:01Z</time>
      </trkpt>
      <trkpt lat="42.172605" lon="1.531047">
        <ele>2104.3</ele>
        <time>2012-05-13T15:42:41Z</time>
      </trkpt>
      <trkpt lat="42.172673" lon="1.531172">
        <ele>2104.0</ele>
        <time>2012-05-13T15:43:21Z</time>
      </trkpt>
      <trkpt lat="42.172637" lon="1.531210">
        <ele>2104.3</ele>
        <time>2012-05-13T15:44:01Z</time>
      </trkpt>
      <trkpt lat="42.172533" lon="1.531204">
        <ele>2104.6</ele>
        <time>2012-05-13T15:44:41Z</time>
      </trkpt>
      <trkpt lat="42.172429" lon="1.531197">
        <ele>2103.5</ele>
        <time>2012-05-13T15:45:21Z</time>
      </trkpt>
      <trkpt lat="42.172325" lon="1.531191">
        <ele>2102.1</ele>
        <time>2012-05-13T15:46:01Z</time>
      </trkpt>
      <trkpt lat="42.172220" lon="1.531185">
        <ele>2100.5</ele>
        <time>2012-05-13T15:46:41Z</time>
      </trkpt>
      <trkpt lat="42.172102" lon="1.531135">
        <ele>2099.3</ele>
        <time>2012-05-13T15:47:21Z</time>
      </trkpt>
      <trkpt lat="42.171985" lon="1.531085">
        <ele>2100.1</ele>
        <time>2012-05-13T15:48:01Z</time>
      </trkpt>
      <trkpt lat="42.171881" lon="1.531157">
        <ele>2098.6</ele>
        <time>2012-05-13T15:48:41Z</time>
      </trkpt>
      <trkpt lat="42.171778" lon="1.531230">
        <ele>2096.0</ele>
        <time>2012-05-13T15:49:21Z</time>
      </trkpt>
      <trkpt lat="42.171675" lon="1.531302">
        <ele>2093.4</ele>
        <time>2012-05-13T15:50:01Z</time>
      </trkpt>
      <trkpt lat="42.171558" lon="1.531323">
        <ele>2093.5</ele>
        <time>2012-05-13T15:50:41Z</time>
      </trkpt>
      <trkpt lat="42.171441" lon="1.531343">
        <ele>2093.7</ele>
        <time>2012-05-13T15:51:21Z</time>
      </trkpt>
      <trkpt lat="42.171324" lon="1.531363">
        <ele>2093.0</ele>
        <time>2012-05-13T15:52:01Z</time>
      </trkpt>
      <trkpt lat="42.171207" lon="1.531383">
        <ele>2091.7</ele>
        <time>2012-05-13T15:52:41Z</time>
      </trkpt>
      <trkpt lat="42.171096" lon="1.531342">
        <ele>2091.9</ele>
        <time>2012-05-13T15:53:21Z</time>
      </trkpt>
      <trkpt lat="42.170984" lon="1.531301">
        <ele>2092.1</ele>
        <time>2012-05-13T15:54:01Z</time>
      </trkpt>
      <trkpt lat="42.170873" lon="1.531260">
        <ele>2092.0</ele>
        <time>2012-05-13T15:54:41Z</time>
      </trkpt>
      <trkpt lat="42.170762" lon="1.531218">
        <ele>2091.2</ele>
        <time>2012-05-13T15:55:21Z</time>
      </trkpt>
      <trkpt lat="42.170632" lon="1.531256">
        <ele>2088.5</ele>
        <time>2012-05-13T15:56:01Z</time>
      </trkpt>
      <trkpt lat="42.170503" lon="1.531294">
        <ele>2086.3</ele>
        <time>2012-05-13T15:56:41Z</time>
      </trkpt>
      <trkpt lat="42.170373" lon="1.531332">
        <ele>2084.5</ele>
        <time>2012-05-13T15:57:21Z</time>
      </trkpt>
      <trkpt lat="42.170243" lon="1.531363">
        <ele>2083.4</ele>
        <time>2012-05-13T15:58:01Z</time>
      </trkpt>
      <trkpt lat="42.170113" lon="1.531394">
        <ele>2082.8</ele>
        <time>2012-05-13T15:58:41Z</time>
      </trkpt>
      <trkpt lat="42.169983" lon="1.531426">
        <ele>2081.9</ele>
        <time>2012-05-13T15:59:21Z</time>
      </trkpt>
      <trkpt lat="42.169853" lon="1.531457">
        <ele>2081.6</ele>
        <time>2012-05-13T16:00:01Z</time>
      </trkpt>
      <trkpt lat="42.169723" lon="1.531488">
        <ele>2080.4</ele>
        <time>2012-05-13T16:00:41Z</time>
      </trkpt>
      <trkpt lat="42.169606" lon="1.531490">
        <ele>2079.6</ele>
        <time>2012-05-13T16:01:21Z</time>
      </trkpt>
      <trkpt lat="42.169489" lon="1.531493">
        <ele>2079.0</ele>
        <time>2012-05-13T16:02:01Z</time>
      </trkpt>
      <trkpt lat="42.169372" lon="1.531496">
        <ele>2078.5</ele>
        <time>2012-05-13T16:02:41Z</time>
      </trkpt>
      <trkpt lat="42.169255" lon="1.531499">
        <ele>2077.7</ele>
        <time>2012-05-13T16:03:21Z</time>
      </trkpt>
      <trkpt lat="42.169135" lon="1.531480">
        <ele>2076.9</ele>
        <time>2012-05-13T16:04:01Z</time>
      </trkpt>
      <trkpt lat="42.169015" lon="1.531462">
        <ele>2075.8</ele>
        <time>2012-05-13T16:04:41Z</time>
      </trkpt>
      <trkpt lat="42.168895" lon="1.531444">
        <ele>2074.2</ele>
        <time>2012-05-13T16:05:21Z</time>
      </trkpt>
      <trkpt lat="42.168774" lon="1.531426">
        <ele>2071.8</ele>
        <time>2012-05-13T16:06:01Z</time>
      </trkpt>
      <trkpt lat="42.168654" lon="1.531407">
        <ele>2069.8</ele>
        <time>2012-05-13T16:06:41Z</time>
      </trkpt>
      <trkpt lat="42.168550" lon="1.531384">
        <ele>2068.9</ele>
        <time>2012-05-13T16:07:21Z</time>
      </trkpt>
      <trkpt lat="42.168445" lon="1.531360">
        <ele>2068.2</ele>
        <time>2012-05-13T16:08:01Z</time>
      </trkpt>
      <trkpt lat="42.168341" lon="1.531336">
        <ele>2067.6</ele>
        <time>2012-05-13T16:08:41Z</time>
      </trkpt>
      <trkpt lat="42.168236" lon="1.531312">
        <ele>2068.7</ele>
        <time>2012-05-13T16:09:21Z</time>
      </trkpt>
      <trkpt lat="42.168117" lon="1.531336">
        <ele>2068.9</ele>
        <time>2012-05-13T16:10:01Z</time>
      </trkpt>
      <trkpt lat="42.167997" lon="1.531359">
        <ele>2068.6</ele>
        <time>2012-05-13T16:10:41Z</time>
      </trkpt>
      <trkpt lat="42.167878" lon="1.531383">
        <ele>2067.4</ele>
        <time>2012-05-13T16:11:21Z</time>
      </trkpt>
      <trkpt lat="42.167758" lon="1.531407">
        <ele>2065.7</ele>
        <time>2012-05-13T16:12:01Z</time>
      </trkpt>
      <trkpt lat="42.167639" lon="1.531431">
        <ele>2064.0</ele>
        <time>2012-05-13T16:12:41Z</time>
      </trkpt>
      <trkpt lat="42.167557" lon="1.531538">
        <ele>2062.5</ele>
        <time>2012-05-13T16:13:21Z</time>
      </trkpt>
      <trkpt lat="42.167475" lon="1.531645">
        <ele>2061.3</ele>
        <time>2012-05-13T16:14:01Z</time>
      </trkpt>
      <trkpt lat="42.167393" lon="1.531752">
        <ele>2060.1</ele>
        <time>2012-05-13T16:14:41Z</time>
      </trkpt>
      <trkpt lat="42.167311" lon="1.531859">
        <ele>2059.1</ele>
        <time>2012-05-13T16:15:21Z</time>
      </trkpt>
      <trkpt lat="42.167229" lon="1.531965">
        <ele>2058.3</ele>
        <time>2012-05-13T16:16:01Z</time>
      </trkpt>
      <trkpt lat="42.167152" lon="1.532064">
        <ele>2057.5</ele>
        <time>2012-05-13T16:16:41Z</time>
      </trkpt>
      <trkpt lat="42.167075" lon="1.532162">
        <ele>2056.9</ele>
        <time>2012-05-13T16:17:21Z</time>
      </trkpt>
      <trkpt lat="42.166998" lon="1.532260">
        <ele>2056.0</ele>
        <time>2012-05-13T16:18:01Z</time>
      </trkpt>
      <trkpt lat="42.166921" lon="1.532358">
        <ele>2054.8</ele>
        <time>2012-05-13T16:18:41Z</time>
      </trkpt>
      <trkpt lat="42.166817" lon="1.532343">
        <ele>2056.4</ele>
        <time>2012-05-13T16:19:21Z</time>
      </trkpt>
      <trkpt lat="42.166712" lon="1.532328">
        <ele>2058.4</ele>
        <time>2012-05-13T16:20:01Z</time>
      </trkpt>
      <trkpt lat="42.166620" lon="1.532414">
        <ele>2057.4</ele>
        <time>2012-05-13T16:20:41Z</time>
      </trkpt>
      <trkpt lat="42.166527" lon="1.532500">
        <ele>2055.9</ele>
        <time>2012-05-13T16:21:21Z</time>
      </trkpt>
      <trkpt lat="42.166434" lon="1.532586">
        <ele>2054.3</ele>
        <time>2012-05-13T16:22:01Z</time>
      </trkpt>
      <trkpt lat="42.166342" lon="1.532672">
        <ele>2052.1</ele>
        <time>2012-05-13T16:22:41Z</time>
      </trkpt>
      <trkpt lat="42.166249" lon="1.532759">
        <ele>2050.2</ele>
        <time>2012-05-13T16:23:21Z</time>
      </trkpt>
      <trkpt lat="42.166345" lon="1.532756">
        <ele>2049.8</ele>
        <time>2012-05-13T16:24:01Z</time>
      </trkpt>
      <trkpt lat="42.166440" lon="1.532754">
        <ele>2050.0</ele>
        <time>2012-05-13T16:24:41Z</time>
      </trkpt>
      <trkpt lat="42.166536" lon="1.532752">
        <ele>2049.7</ele>
        <time>2012-05-13T16:25:21Z</time>
      </trkpt>
      <trkpt lat="42.166665" lon="1.532714">
        <ele>2049.3</ele>
        <time>2012-05-13T16:26:01Z</time>
      </trkpt>
      <trkpt lat="42.166795" lon="1.532676">
        <ele>2048.5</ele>
        <time>2012-05-13T16:26:41Z</time>
      </trkpt>
      <trkpt lat="42.166925" lon="1.532638">
        <ele>2047.6</ele>
        <time>2012-05-13T16:27:21Z</time>
      </trkpt>
      <trkpt lat="42.167055" lon="1.532600">
        <ele>2046.3</ele>
        <time>2012-05-13T16:28:01Z</time>
      </trkpt>
      <trkpt lat="42.167178" lon="1.532597">
        <ele>2043.7</ele>
        <time>2012-05-13T16:28:41Z</time>
      </trkpt>
      <trkpt lat="42.167302" lon="1.532594">
        <ele>2041.5</ele>
        <time>2012-05-13T16:29:21Z</time>
      </trkpt>
      <trkpt lat="42.167426" lon="1.532591">
        <ele>2039.9</ele>
        <time>2012-05-13T16:30:01Z</time>
      </trkpt>
      <trkpt lat="42.167549" lon="1.532588">
        <ele>2039.3</ele>
        <time>2012-05-13T16:30:41Z</time>
      </trkpt>
      <trkpt lat="42.167664" lon="1.532586">
        <ele>2039.5</ele>
        <time>2012-05-13T16:31:21Z</time>
      </trkpt>
      <trkpt lat="42.167779" lon="1.532583">
        <ele>2040.1</ele>
        <time>2012-05-13T16:32:01Z</time>
      </trkpt>
      <trkpt lat="42.167893" lon="1.532581">
        <ele>2040.4</ele>
        <time>2012-05-13T16:32:41Z</time>
      </trkpt>
      <trkpt lat="42.168008" lon="1.532578">
        <ele>2040.3</ele>
        <time>2012-05-13T16:33:21Z</time>
      </trkpt>
      <trkpt lat="42.168122" lon="1.532575">
        <ele>2039.9</ele>
        <time>2012-05-13T16:34:01Z</time>
      </trkpt>
      <trkpt lat="42.168228" lon="1.532678">
        <ele>2036.0</ele>
        <time>2012-05-13T16:34:41Z</time>
      </trkpt>
      <trkpt lat="42.168333" lon="1.532780">
        <ele>2031.2</ele>
        <time>2012-05-13T16:35:21Z</time>
      </trkpt>
      <trkpt lat="42.168439" lon="1.532883">
        <ele>2029.4</ele>
        <time>2012-05-13T16:36:01Z</time>
      </trkpt>
      <trkpt lat="42.168537" lon="1.532971">
        <ele>2030.2</ele>
        <time>2012-05-13T16:36:41Z</time>
      </trkpt>
      <trkpt lat="42.168635" lon="1.533059">
        <ele>2030.6</ele>
        <time>2012-05-13T16:37:21Z</time>
      </trkpt>
      <trkpt lat="42.168733" lon="1.533146">
        <ele>2031.6</ele>
        <time>2012-05-13T16:38:01Z</time>
      </trkpt>
      <trkpt lat="42.168830" lon="1.533234">
        <ele>2031.8</ele>
        <time>2012-05-13T16:38:41Z</time>
      </trkpt>
      <trkpt lat="42.168928" lon="1.533322">
        <ele>2031.2</ele>
        <time>2012-05-13T16:39:21Z</time>
      </trkpt>
      <trkpt lat="42.169026" lon="1.533410">
        <ele>2030.9</ele>
        <time>2012-05-13T16:40:01Z</time>
      </trkpt>
      <trkpt lat="42.169124" lon="1.533498">
        <ele>2029.8</ele>
        <time>2012-05-13T16:40:41Z</time>
      </trkpt>
      <trkpt lat="42.169215" lon="1.533600">
        <ele>2028.6</ele>
        <time>2012-05-13T16:41:21Z</time>
      </trkpt>
      <trkpt lat="42.169305" lon="1.533703">
        <ele>2027.3</ele>
        <time>2012-05-13T16:42:01Z</time>
      </trkpt>
      <trkpt lat="42.169396" lon="1.533806">
        <ele>2026.1</ele>
        <time>2012-05-13T16:42:41Z</time>
      </trkpt>
      <trkpt lat="42.169487" lon="1.533909">
        <ele>2024.8</ele>
        <time>2012-05-13T16:43:21Z</time>
      </trkpt>
      <trkpt lat="42.169577" lon="1.534012">
        <ele>2023.8</ele>
        <time>2012-05-13T16:44:01Z</time>
      </trkpt>
      <trkpt lat="42.169668" lon="1.534115">
        <ele>2022.9</ele>
        <time>2012-05-13T16:44:41Z</time>
      </trkpt>
      <trkpt lat="42.169758" lon="1.534218">
        <ele>2021.6</ele>
        <time>2012-05-13T16:45:21Z</time>
      </trkpt>
      <trkpt lat="42.169838" lon="1.534345">
        <ele>2019.2</ele>
        <time>2012-05-13T16:46:01Z</time>
      </trkpt>
      <trkpt lat="42.169918" lon="1.534471">
        <ele>2018.2</ele>
        <time>2012-05-13T16:46:41Z</time>
      </trkpt>
      <trkpt lat="42.169998" lon="1.534598">
        <ele>2017.5</ele>
        <time>2012-05-13T16:47:21Z</time>
      </trkpt>
      <trkpt lat="42.170107" lon="1.534683">
        <ele>2018.4</ele>
        <time>2012-05-13T16:48:01Z</time>
      </trkpt>
      <trkpt lat="42.170217" lon="1.534768">
        <ele>2017.4</ele>
        <time>2012-05-13T16:48:41Z</time>
      </trkpt>
      <trkpt lat="42.170327" lon="1.534853">
        <ele>2016.1</ele>
        <time>2012-05-13T16:49:21Z</time>
      </trkpt>
      <trkpt lat="42.170436" lon="1.534938">
        <ele>2014.5</ele>
        <time>2012-05-13T16:50:01Z</time>
      </trkpt>
      <trkpt lat="42.170546" lon="1.535023">
        <ele>2012.9</ele>
        <time>2012-05-13T16:50:41Z</time>
      </trkpt>
      <trkpt lat="42.170655" lon="1.535108">
        <ele>2011.3</ele>
        <time>2012-05-13T16:51:21Z</time>
      </trkpt>
      <trkpt lat="42.170696" lon="1.535247">
        <ele>2008.9</ele>
        <time>2012-05-13T16:52:01Z</time>
      </trkpt>
      <trkpt lat="42.170737" lon="1.535386">
        <ele>2007.6</ele>
        <time>2012-05-13T16:52:41Z</time>
      </trkpt>
      <trkpt lat="42.170778" lon="1.535525">
        <ele>2006.6</ele>
        <time>2012-05-13T16:53:21Z</time>
      </trkpt>
      <trkpt lat="42.170819" lon="1.535664">
        <ele>2005.3</ele>
        <time>2012-05-13T16:54:01Z</time>
      </trkpt>
      <trkpt lat="42.170916" lon="1.535779">
        <ele>2004.6</ele>
        <time>2012-05-13T16:54:41Z</time>
      </trkpt>
      <trkpt lat="42.171013" lon="1.535893">
        <ele>2004.2</ele>
        <time>2012-05-13T16:55:21Z</time>
      </trkpt>
      <trkpt lat="42.171110" lon="1.536008">
        <ele>2003.2</ele>
        <time>2012-05-13T16:56:01Z</time>
      </trkpt>
      <trkpt lat="42.171202" lon="1.536067">
        <ele>2002.5</ele>
        <time>2012-05-13T16:56:41Z</time>
      </trkpt>
      <trkpt lat="42.171294" lon="1.536126">
        <ele>2001.6</ele>
        <time>2012-05-13T16:57:21Z</time>
      </trkpt>
      <trkpt lat="42.171385" lon="1.536185">
        <ele>2000.8</ele>
        <time>2012-05-13T16:58:01Z</time>
      </trkpt>
      <trkpt lat="42.171477" lon="1.536245">
        <ele>1999.9</ele>
        <time>2012-05-13T16:58:41Z</time>
      </trkpt>
      <trkpt lat="42.171427" lon="1.536386">
        <ele>1998.0</ele>
        <time>2012-05-13T16:59:21Z</time>
      </trkpt>
      <trkpt lat="42.171323" lon="1.536388">
        <ele>1997.7</ele>
        <time>2012-05-13T17:00:01Z</time>
      </trkpt>
      <trkpt lat="42.171219" lon="1.536391">
        <ele>1997.1</ele>
        <time>2012-05-13T17:00:41Z</time>
      </trkpt>
      <trkpt lat="42.171115" lon="1.536393">
        <ele>1996.4</ele>
        <time>2012-05-13T17:01:21Z</time>
      </trkpt>
      <trkpt lat="42.170984" lon="1.536387">
        <ele>1995.6</ele>
        <time>2012-05-13T17:02:01Z</time>
      </trkpt>
      <trkpt lat="42.170854" lon="1.536382">
        <ele>1994.6</ele>
        <time>2012-05-13T17:02:41Z</time>
      </trkpt>
      <trkpt lat="42.170724" lon="1.536376">
        <ele>1993.6</ele>
        <time>2012-05-13T17:03:21Z</time>
      </trkpt>
      <trkpt lat="42.170593" lon="1.536370">
        <ele>1993.4</ele>
        <time>2012-05-13T17:04:01Z</time>
      </trkpt>
      <trkpt lat="42.170595" lon="1.536475">
        <ele>1991.8</ele>
        <time>2012-05-13T17:04:41Z</time>
      </trkpt>
      <trkpt lat="42.170596" lon="1.536580">
        <ele>1989.2</ele>
        <time>2012-05-13T17:05:21Z</time>
      </trkpt>
      <trkpt lat="42.170707" lon="1.536676">
        <ele>1987.8</ele>
        <time>2012-05-13T17:06:01Z</time>
      </trkpt>
      <trkpt lat="42.170817" lon="1.536771">
        <ele>1986.7</ele>
        <time>2012-05-13T17:06:41Z</time>
      </trkpt>
      <trkpt lat="42.170928" lon="1.536867">
        <ele>1985.8</ele>
        <time>2012-05-13T17:07:21Z</time>
      </trkpt>
      <trkpt lat="42.171039" lon="1.536962">
        <ele>1985.2</ele>
        <time>2012-05-13T17:08:01Z</time>
      </trkpt>
      <trkpt lat="42.171149" lon="1.537057">
        <ele>1984.2</ele>
        <time>2012-05-13T17:08:41Z</time>
      </trkpt>
      <trkpt lat="42.171274" lon="1.537125">
        <ele>1983.6</ele>
        <time>2012-05-13T17:09:21Z</time>
      </trkpt>
      <trkpt lat="42.171398" lon="1.537192">
        <ele>1983.4</ele>
        <time>2012-05-13T17:10:01Z</time>
      </trkpt>
      <trkpt lat="42.171523" lon="1.537259">
        <ele>1982.3</ele>
        <time>2012-05-13T17:10:41Z</time>
      </trkpt>
      <trkpt lat="42.171647" lon="1.537326">
        <ele>1981.0</ele>
        <time>2012-05-13T17:11:21Z</time>
      </trkpt>
      <trkpt lat="42.171759" lon="1.537230">
        <ele>1982.4</ele>
        <time>2012-05-13T17:12:01Z</time>
      </trkpt>
      <trkpt lat="42.171871" lon="1.537134">
        <ele>1982.6</ele>
        <time>2012-05-13T17:12:41Z</time>
      </trkpt>
      <trkpt lat="42.171983" lon="1.537038">
        <ele>1981.6</ele>
        <time>2012-05-13T17:13:21Z</time>
      </trkpt>
      <trkpt lat="42.172094" lon="1.536942">
        <ele>1980.2</ele>
        <time>2012-05-13T17:14:01Z</time>
      </trkpt>
      <trkpt lat="42.172206" lon="1.536846">
        <ele>1978.4</ele>
        <time>2012-05-13T17:14:41Z</time>
      </trkpt>
      <trkpt lat="42.172318" lon="1.536751">
        <ele>1976.9</ele>
        <time>2012-05-13T17:15:21Z</time>
      </trkpt>
      <trkpt lat="42.172403" lon="1.536836">
        <ele>1975.7</ele>
        <time>2012-05-13T17:16:01Z</time>
      </trkpt>
      <trkpt lat="42.172489" lon="1.536922">
        <ele>1974.0</ele>
        <time>2012-05-13T17:16:41Z</time>
      </trkpt>
      <trkpt lat="42.172575" lon="1.537007">
        <ele>1972.5</ele>
        <time>2012-05-13T17:17:21Z</time>
      </trkpt>
      <trkpt lat="42.172661" lon="1.537093">
        <ele>1972.8</ele>
        <time>2012-05-13T17:18:01Z</time>
      </trkpt>
      <trkpt lat="42.172714" lon="1.537223">
        <ele>1972.6</ele>
        <time>2012-05-13T17:18:41Z</time>
      </trkpt>
      <trkpt lat="42.172768" lon="1.537353">
        <ele>1972.8</ele>
        <time>2012-05-13T17:19:21Z</time>
      </trkpt>
      <trkpt lat="42.172822" lon="1.537483">
        <ele>1972.6</ele>
        <time>2012-05-13T17:20:01Z</time>
      </trkpt>
      <trkpt lat="42.172875" lon="1.537613">
        <ele>1971.6</ele>
        <time>2012-05-13T17:20:41Z</time>
      </trkpt>
      <trkpt lat="42.172920" lon="1.537778">
        <ele>1969.7</ele>
        <time>2012-05-13T17:21:21Z</time>
      </trkpt>
      <trkpt lat="42.172965" lon="1.537942">
        <ele>1967.4</ele>
        <time>2012-05-13T17:22:01Z</time>
      </trkpt>
      <trkpt lat="42.173010" lon="1.538107">
        <ele>1965.5</ele>
        <time>2012-05-13T17:22:41Z</time>
      </trkpt>
      <trkpt lat="42.173054" lon="1.538271">
        <ele>1963.9</ele>
        <time>2012-05-13T17:23:21Z</time>
      </trkpt>
      <trkpt lat="42.173099" lon="1.538436">
        <ele>1962.0</ele>
        <time>2012-05-13T17:24:01Z</time>
      </trkpt>
      <trkpt lat="42.173144" lon="1.538600">
        <ele>1961.4</ele>
        <time>2012-05-13T17:24:41Z</time>
      </trkpt>
      <trkpt lat="42.173189" lon="1.538765">
        <ele>1959.7</ele>
        <time>2012-05-13T17:25:21Z</time>
      </trkpt>
      <trkpt lat="42.173234" lon="1.538929">
        <ele>1958.4</ele>
        <time>2012-05-13T17:26:01Z</time>
      </trkpt>
      <trkpt lat="42.173278" lon="1.539094">
        <ele>1957.9</ele>
        <time>2012-05-13T17:26:41Z</time>
      </trkpt>
      <trkpt lat="42.173323" lon="1.539258">
        <ele>1956.5</ele>
        <time>2012-05-13T17:27:21Z</time>
      </trkpt>
      <trkpt lat="42.173368" lon="1.539423">
        <ele>1954.8</ele>
        <time>2012-05-13T17:28:01Z</time>
      </trkpt>
      <trkpt lat="42.173447" lon="1.539547">
        <ele>1954.4</ele>
        <time>2012-05-13T17:28:41Z</time>
      </trkpt>
      <trkpt lat="42.173527" lon="1.539671">
        <ele>1953.3</ele>
        <time>2012-05-13T17:29:21Z</time>
      </trkpt>
      <trkpt lat="42.173607" lon="1.539796">
        <ele>1952.6</ele>
        <time>2012-05-13T17:30:01Z</time>
      </trkpt>
      <trkpt lat="42.173686" lon="1.539920">
        <ele>1951.6</ele>
        <time>2012-05-13T17:30:41Z</time>
      </trkpt>
      <trkpt lat="42.173766" lon="1.540044">
        <ele>1949.6</ele>
        <time>2012-05-13T17:31:21Z</time>
      </trkpt>
      <trkpt lat="42.173884" lon="1.540104">
        <ele>1949.0</ele>
        <time>2012-05-13T17:32:01Z</time>
      </trkpt>
      <trkpt lat="42.174002" lon="1.540165">
        <ele>1948.0</ele>
        <time>2012-05-13T17:32:41Z</time>
      </trkpt>
      <trkpt lat="42.174120" lon="1.540225">
        <ele>1947.8</ele>
        <time>2012-05-13T17:33:21Z</time>
      </trkpt>
      <trkpt lat="42.174238" lon="1.540285">
        <ele>1947.6</ele>
        <time>2012-05-13T17:34:01Z</time>
      </trkpt>
      <trkpt lat="42.174356" lon="1.540346">
        <ele>1946.7</ele>
        <time>2012-05-13T17:34:41Z</time>
      </trkpt>
      <trkpt lat="42.174474" lon="1.540406">
        <ele>1945.8</ele>
        <time>2012-05-13T17:35:21Z</time>
      </trkpt>
      <trkpt lat="42.174592" lon="1.540466">
        <ele>1944.8</ele>
        <time>2012-05-13T17:36:01Z</time>
      </trkpt>
      <trkpt lat="42.174710" lon="1.540527">
        <ele>1942.8</ele>
        <time>2012-05-13T17:36:41Z</time>
      </trkpt>
      <trkpt lat="42.174828" lon="1.540587">
        <ele>1940.2</ele>
        <time>2012-05-13T17:37:21Z</time>
      </trkpt>
      <trkpt lat="42.174946" lon="1.540647">
        <ele>1938.6</ele>
        <time>2012-05-13T17:38:01Z</time>
      </trkpt>
      <trkpt lat="42.175079" lon="1.540662">
        <ele>1939.4</ele>
        <time>2012-05-13T17:38:41Z</time>
      </trkpt>
      <trkpt lat="42.175211" lon="1.540676">
        <ele>1939.8</ele>
        <time>2012-05-13T17:39:21Z</time>
      </trkpt>
      <trkpt lat="42.175344" lon="1.540691">
        <ele>1938.9</ele>
        <time>2012-05-13T17:40:01Z</time>
      </trkpt>
      <trkpt lat="42.175477" lon="1.540705">
        <ele>1937.8</ele>
        <time>2012-05-13T17:40:41Z</time>
      </trkpt>
      <trkpt lat="42.175609" lon="1.540720">
        <ele>1936.2</ele>
        <time>2012-05-13T17:41:21Z</time>
      </trkpt>
      <trkpt lat="42.175742" lon="1.540734">
        <ele>1934.8</ele>
        <time>2012-05-13T17:42:01Z</time>
      </trkpt>
      <trkpt lat="42.175874" lon="1.540749">
        <ele>1935.0</ele>
        <time>2012-05-13T17:42:41Z</time>
      </trkpt>
      <trkpt lat="42.176007" lon="1.540763">
        <ele>1935.6</ele>
        <time>2012-05-13T17:43:21Z</time>
      </trkpt>
      <trkpt lat="42.176139" lon="1.540778">
        <ele>1936.5</ele>
        <time>2012-05-13T17:44:01Z</time>
      </trkpt>
      <trkpt lat="42.176272" lon="1.540792">
        <ele>1935.7</ele>
        <time>2012-05-13T17:44:41Z</time>
      </trkpt>
      <trkpt lat="42.176405" lon="1.540806">
        <ele>1933.0</ele>
        <time>2012-05-13T17:45:21Z</time>
      </trkpt>
      <trkpt lat="42.176537" lon="1.540821">
        <ele>1933.3</ele>
        <time>2012-05-13T17:46:01Z</time>
      </trkpt>
      <trkpt lat="42.176614" lon="1.541326">
        <ele>1930.0</ele>
        <time>2012-05-13T17:46:41Z</time>
      </trkpt>
      <trkpt lat="42.176658" lon="1.541401">
        <ele>1928.8</ele>
        <time>2012-05-13T17:47:21Z</time>
      </trkpt>
      <trkpt lat="42.176701" lon="1.541475">
        <ele>1928.7</ele>
        <time>2012-05-13T17:48:01Z</time>
      </trkpt>
    </trkseg>
  </trk>
</gpx>
